<?xml version="1.0" encoding="UTF-8" standalone="no" ?>
<gpx xmlns="http://www.topografix.com/GPX/1/1" xmlns:xsi="http://www.w3.org/2001/XMLSchema-instance" xsi:schemaLocation="http://www.topografix.com/GPX/1/1 http://www.topografix.com/GPX/1/1/gpx.xsd" version="1.1" creator="VisuGPX - https://www.visugpx.com">
  <metadata>
    <name>CANADA - RAQUETTES - L'aventurier - Sainte Catherine de la Jacques Cartier</name>
    <desc><![CDATA[Domaine de la station touristique Duchesnay]]></desc>
  </metadata>
  <wpt lat="46.86914" lon="-71.64209">
    <ele>194</ele>
    <name><![CDATA[Base de départ]]></name>
    <desc><![CDATA[22-MAR-16 12:54:15]]></desc>
    <cmt><![CDATA[22-MAR-16 12:54:15]]></cmt>
  </wpt>
  <wpt lat="46.8696" lon="-71.64299">
    <name><![CDATA[Horizon]]></name>
  </wpt>
  <wpt lat="46.88401" lon="-71.65311">
    <name><![CDATA[refuge de la Halte]]></name>
  </wpt>
  <wpt lat="46.89283" lon="-71.67224">
    <ele>351</ele>
    <name><![CDATA[Refuge du Sommet]]></name>
    <desc><![CDATA[23-MAR-16 19:24:29]]></desc>
    <cmt><![CDATA[23-MAR-16 19:24:29]]></cmt>
  </wpt>
  <wpt lat="46.88039" lon="-71.67161">
    <ele>240</ele>
    <name><![CDATA[Refuge la Bicoque]]></name>
    <desc><![CDATA[24-MAR-16 19:24:23]]></desc>
    <cmt><![CDATA[24-MAR-16 19:24:23]]></cmt>
  </wpt>
  <trk>
    <name><![CDATA[ACTIVE LOG 004]]></name>
    <trkseg>
      <trkpt lat="46.86955" lon="-71.64308">
        <ele>191.92028808594</ele>
        <time>2016-03-23T16:34:21Z</time>
      </trkpt>
      <trkpt lat="46.86955" lon="-71.64309">
        <ele>191.92028808594</ele>
        <time>2016-03-23T16:34:22Z</time>
      </trkpt>
      <trkpt lat="46.86954" lon="-71.64309">
        <ele>191.92028808594</ele>
        <time>2016-03-23T16:34:23Z</time>
      </trkpt>
      <trkpt lat="46.86952" lon="-71.64301">
        <ele>192.40112304688</ele>
        <time>2016-03-23T16:34:44Z</time>
      </trkpt>
      <trkpt lat="46.86954" lon="-71.64301">
        <ele>192.88171386719</ele>
        <time>2016-03-23T16:34:57Z</time>
      </trkpt>
      <trkpt lat="46.86957" lon="-71.64317">
        <ele>192.88171386719</ele>
        <time>2016-03-23T16:35:15Z</time>
      </trkpt>
      <trkpt lat="46.86957" lon="-71.6432">
        <ele>192.88171386719</ele>
        <time>2016-03-23T16:35:17Z</time>
      </trkpt>
      <trkpt lat="46.86957" lon="-71.64325">
        <ele>193.3623046875</ele>
        <time>2016-03-23T16:35:21Z</time>
      </trkpt>
      <trkpt lat="46.86963" lon="-71.64341">
        <ele>194.32373046875</ele>
        <time>2016-03-23T16:35:36Z</time>
      </trkpt>
      <trkpt lat="46.86972" lon="-71.64345">
        <ele>195.765625</ele>
        <time>2016-03-23T16:35:50Z</time>
      </trkpt>
      <trkpt lat="46.86979" lon="-71.64347">
        <ele>197.20751953125</ele>
        <time>2016-03-23T16:35:58Z</time>
      </trkpt>
      <trkpt lat="46.86992" lon="-71.64351">
        <ele>199.13012695312</ele>
        <time>2016-03-23T16:36:12Z</time>
      </trkpt>
      <trkpt lat="46.87001" lon="-71.64361">
        <ele>201.53356933594</ele>
        <time>2016-03-23T16:36:26Z</time>
      </trkpt>
      <trkpt lat="46.87002" lon="-71.64368">
        <ele>201.53356933594</ele>
        <time>2016-03-23T16:36:31Z</time>
      </trkpt>
      <trkpt lat="46.87003" lon="-71.64371">
        <ele>201.53356933594</ele>
        <time>2016-03-23T16:36:33Z</time>
      </trkpt>
      <trkpt lat="46.87008" lon="-71.64378">
        <ele>200.572265625</ele>
        <time>2016-03-23T16:36:50Z</time>
      </trkpt>
      <trkpt lat="46.8701" lon="-71.64385">
        <ele>201.53356933594</ele>
        <time>2016-03-23T16:37:03Z</time>
      </trkpt>
      <trkpt lat="46.87015" lon="-71.64413">
        <ele>202.01428222656</ele>
        <time>2016-03-23T16:37:22Z</time>
      </trkpt>
      <trkpt lat="46.87016" lon="-71.64417">
        <ele>201.53356933594</ele>
        <time>2016-03-23T16:37:25Z</time>
      </trkpt>
      <trkpt lat="46.87023" lon="-71.64437">
        <ele>201.53356933594</ele>
        <time>2016-03-23T16:37:38Z</time>
      </trkpt>
      <trkpt lat="46.87027" lon="-71.64465">
        <ele>202.49487304688</ele>
        <time>2016-03-23T16:37:56Z</time>
      </trkpt>
      <trkpt lat="46.87028" lon="-71.64466">
        <ele>202.49487304688</ele>
        <time>2016-03-23T16:37:57Z</time>
      </trkpt>
      <trkpt lat="46.87032" lon="-71.64475">
        <ele>203.45617675781</ele>
        <time>2016-03-23T16:38:03Z</time>
      </trkpt>
      <trkpt lat="46.87034" lon="-71.64491">
        <ele>203.93688964844</ele>
        <time>2016-03-23T16:38:15Z</time>
      </trkpt>
      <trkpt lat="46.87035" lon="-71.64495">
        <ele>203.45617675781</ele>
        <time>2016-03-23T16:38:18Z</time>
      </trkpt>
      <trkpt lat="46.87034" lon="-71.64522">
        <ele>202.49487304688</ele>
        <time>2016-03-23T16:38:35Z</time>
      </trkpt>
      <trkpt lat="46.87037" lon="-71.64539">
        <ele>202.97546386719</ele>
        <time>2016-03-23T16:38:45Z</time>
      </trkpt>
      <trkpt lat="46.87039" lon="-71.64561">
        <ele>203.45617675781</ele>
        <time>2016-03-23T16:38:58Z</time>
      </trkpt>
      <trkpt lat="46.87046" lon="-71.64577">
        <ele>204.41748046875</ele>
        <time>2016-03-23T16:39:10Z</time>
      </trkpt>
      <trkpt lat="46.87049" lon="-71.64585">
        <ele>205.37878417969</ele>
        <time>2016-03-23T16:39:15Z</time>
      </trkpt>
      <trkpt lat="46.8705" lon="-71.64605">
        <ele>205.37878417969</ele>
        <time>2016-03-23T16:39:26Z</time>
      </trkpt>
      <trkpt lat="46.87052" lon="-71.64613">
        <ele>205.37878417969</ele>
        <time>2016-03-23T16:39:31Z</time>
      </trkpt>
      <trkpt lat="46.87053" lon="-71.64622">
        <ele>204.89807128906</ele>
        <time>2016-03-23T16:39:36Z</time>
      </trkpt>
      <trkpt lat="46.87054" lon="-71.64627">
        <ele>204.89807128906</ele>
        <time>2016-03-23T16:39:39Z</time>
      </trkpt>
      <trkpt lat="46.87054" lon="-71.64653">
        <ele>203.93688964844</ele>
        <time>2016-03-23T16:39:54Z</time>
      </trkpt>
      <trkpt lat="46.87054" lon="-71.64655">
        <ele>204.41748046875</ele>
        <time>2016-03-23T16:39:55Z</time>
      </trkpt>
      <trkpt lat="46.87055" lon="-71.64682">
        <ele>203.45617675781</ele>
        <time>2016-03-23T16:40:12Z</time>
      </trkpt>
      <trkpt lat="46.87067" lon="-71.64695">
        <ele>205.85949707031</ele>
        <time>2016-03-23T16:40:27Z</time>
      </trkpt>
      <trkpt lat="46.8707" lon="-71.64699">
        <ele>206.82067871094</ele>
        <time>2016-03-23T16:40:31Z</time>
      </trkpt>
      <trkpt lat="46.87082" lon="-71.64713">
        <ele>208.74340820312</ele>
        <time>2016-03-23T16:40:47Z</time>
      </trkpt>
      <trkpt lat="46.87089" lon="-71.64719">
        <ele>208.74340820312</ele>
        <time>2016-03-23T16:40:54Z</time>
      </trkpt>
      <trkpt lat="46.871" lon="-71.64739">
        <ele>210.666015625</ele>
        <time>2016-03-23T16:41:08Z</time>
      </trkpt>
      <trkpt lat="46.871" lon="-71.6474">
        <ele>210.666015625</ele>
        <time>2016-03-23T16:41:09Z</time>
      </trkpt>
      <trkpt lat="46.87108" lon="-71.64764">
        <ele>211.14672851562</ele>
        <time>2016-03-23T16:41:24Z</time>
      </trkpt>
      <trkpt lat="46.87112" lon="-71.64781">
        <ele>210.666015625</ele>
        <time>2016-03-23T16:41:34Z</time>
      </trkpt>
      <trkpt lat="46.87121" lon="-71.64798">
        <ele>210.18542480469</ele>
        <time>2016-03-23T16:41:47Z</time>
      </trkpt>
      <trkpt lat="46.87133" lon="-71.64812">
        <ele>211.62744140625</ele>
        <time>2016-03-23T16:42:01Z</time>
      </trkpt>
      <trkpt lat="46.87133" lon="-71.64818">
        <ele>209.70483398438</ele>
        <time>2016-03-23T16:42:05Z</time>
      </trkpt>
      <trkpt lat="46.8713" lon="-71.64834">
        <ele>206.82067871094</ele>
        <time>2016-03-23T16:42:16Z</time>
      </trkpt>
      <trkpt lat="46.87128" lon="-71.6484">
        <ele>205.37878417969</ele>
        <time>2016-03-23T16:42:21Z</time>
      </trkpt>
      <trkpt lat="46.87123" lon="-71.64853">
        <ele>202.01428222656</ele>
        <time>2016-03-23T16:42:32Z</time>
      </trkpt>
      <trkpt lat="46.87106" lon="-71.6486">
        <ele>199.13012695312</ele>
        <time>2016-03-23T16:42:46Z</time>
      </trkpt>
      <trkpt lat="46.87091" lon="-71.64867">
        <ele>197.68823242188</ele>
        <time>2016-03-23T16:43:01Z</time>
      </trkpt>
      <trkpt lat="46.87073" lon="-71.64879">
        <ele>194.80432128906</ele>
        <time>2016-03-23T16:43:20Z</time>
      </trkpt>
      <trkpt lat="46.87067" lon="-71.64877">
        <ele>193.3623046875</ele>
        <time>2016-03-23T16:43:26Z</time>
      </trkpt>
      <trkpt lat="46.87054" lon="-71.64868">
        <ele>191.43957519531</ele>
        <time>2016-03-23T16:43:39Z</time>
      </trkpt>
      <trkpt lat="46.8704" lon="-71.64871">
        <ele>188.07507324219</ele>
        <time>2016-03-23T16:43:52Z</time>
      </trkpt>
      <trkpt lat="46.87033" lon="-71.64876">
        <ele>184.71057128906</ele>
        <time>2016-03-23T16:44:03Z</time>
      </trkpt>
      <trkpt lat="46.8703" lon="-71.64889">
        <ele>183.7490234375</ele>
        <time>2016-03-23T16:44:17Z</time>
      </trkpt>
      <trkpt lat="46.87029" lon="-71.64895">
        <ele>182.78784179688</ele>
        <time>2016-03-23T16:44:22Z</time>
      </trkpt>
      <trkpt lat="46.87026" lon="-71.64909">
        <ele>182.30712890625</ele>
        <time>2016-03-23T16:44:31Z</time>
      </trkpt>
      <trkpt lat="46.87026" lon="-71.64925">
        <ele>182.30712890625</ele>
        <time>2016-03-23T16:44:40Z</time>
      </trkpt>
      <trkpt lat="46.87026" lon="-71.64935">
        <ele>182.30712890625</ele>
        <time>2016-03-23T16:44:46Z</time>
      </trkpt>
      <trkpt lat="46.87026" lon="-71.64944">
        <ele>182.78784179688</ele>
        <time>2016-03-23T16:44:51Z</time>
      </trkpt>
      <trkpt lat="46.87024" lon="-71.64969">
        <ele>182.78784179688</ele>
        <time>2016-03-23T16:45:06Z</time>
      </trkpt>
      <trkpt lat="46.87027" lon="-71.64983">
        <ele>183.26843261719</ele>
        <time>2016-03-23T16:45:15Z</time>
      </trkpt>
      <trkpt lat="46.87038" lon="-71.64987">
        <ele>184.71057128906</ele>
        <time>2016-03-23T16:45:31Z</time>
      </trkpt>
      <trkpt lat="46.87041" lon="-71.64993">
        <ele>184.71057128906</ele>
        <time>2016-03-23T16:45:37Z</time>
      </trkpt>
      <trkpt lat="46.87042" lon="-71.65009">
        <ele>184.71057128906</ele>
        <time>2016-03-23T16:45:48Z</time>
      </trkpt>
      <trkpt lat="46.87043" lon="-71.65011">
        <ele>185.19116210938</ele>
        <time>2016-03-23T16:45:49Z</time>
      </trkpt>
      <trkpt lat="46.87044" lon="-71.65015">
        <ele>185.19116210938</ele>
        <time>2016-03-23T16:45:52Z</time>
      </trkpt>
      <trkpt lat="46.87056" lon="-71.65043">
        <ele>185.67175292969</ele>
        <time>2016-03-23T16:46:09Z</time>
      </trkpt>
      <trkpt lat="46.87062" lon="-71.65054">
        <ele>186.63317871094</ele>
        <time>2016-03-23T16:46:18Z</time>
      </trkpt>
      <trkpt lat="46.87065" lon="-71.65064">
        <ele>187.11376953125</ele>
        <time>2016-03-23T16:46:24Z</time>
      </trkpt>
      <trkpt lat="46.87062" lon="-71.65086">
        <ele>187.59436035156</ele>
        <time>2016-03-23T16:46:38Z</time>
      </trkpt>
      <trkpt lat="46.87062" lon="-71.65096">
        <ele>187.59436035156</ele>
        <time>2016-03-23T16:46:44Z</time>
      </trkpt>
      <trkpt lat="46.87064" lon="-71.65109">
        <ele>187.11376953125</ele>
        <time>2016-03-23T16:46:53Z</time>
      </trkpt>
      <trkpt lat="46.87081" lon="-71.6511">
        <ele>188.55578613281</ele>
        <time>2016-03-23T16:47:09Z</time>
      </trkpt>
      <trkpt lat="46.87082" lon="-71.6511">
        <ele>188.55578613281</ele>
        <time>2016-03-23T16:47:11Z</time>
      </trkpt>
      <trkpt lat="46.87093" lon="-71.65114">
        <ele>190.958984375</ele>
        <time>2016-03-23T16:47:24Z</time>
      </trkpt>
      <trkpt lat="46.87098" lon="-71.65115">
        <ele>191.43957519531</ele>
        <time>2016-03-23T16:47:30Z</time>
      </trkpt>
      <trkpt lat="46.87102" lon="-71.65122">
        <ele>191.92028808594</ele>
        <time>2016-03-23T16:47:35Z</time>
      </trkpt>
      <trkpt lat="46.87104" lon="-71.65129">
        <ele>192.88171386719</ele>
        <time>2016-03-23T16:47:39Z</time>
      </trkpt>
      <trkpt lat="46.87104" lon="-71.65133">
        <ele>191.92028808594</ele>
        <time>2016-03-23T16:47:41Z</time>
      </trkpt>
      <trkpt lat="46.87108" lon="-71.65153">
        <ele>191.92028808594</ele>
        <time>2016-03-23T16:47:54Z</time>
      </trkpt>
      <trkpt lat="46.87098" lon="-71.65182">
        <ele>192.40112304688</ele>
        <time>2016-03-23T16:48:14Z</time>
      </trkpt>
      <trkpt lat="46.87097" lon="-71.65187">
        <ele>191.92028808594</ele>
        <time>2016-03-23T16:48:17Z</time>
      </trkpt>
      <trkpt lat="46.87101" lon="-71.65207">
        <ele>192.40112304688</ele>
        <time>2016-03-23T16:48:29Z</time>
      </trkpt>
      <trkpt lat="46.87099" lon="-71.65216">
        <ele>191.92028808594</ele>
        <time>2016-03-23T16:48:35Z</time>
      </trkpt>
      <trkpt lat="46.87102" lon="-71.65234">
        <ele>191.92028808594</ele>
        <time>2016-03-23T16:48:47Z</time>
      </trkpt>
      <trkpt lat="46.87108" lon="-71.65245">
        <ele>192.88171386719</ele>
        <time>2016-03-23T16:48:55Z</time>
      </trkpt>
      <trkpt lat="46.8711" lon="-71.65252">
        <ele>192.88171386719</ele>
        <time>2016-03-23T16:48:59Z</time>
      </trkpt>
      <trkpt lat="46.87116" lon="-71.65275">
        <ele>193.84301757812</ele>
        <time>2016-03-23T16:49:13Z</time>
      </trkpt>
      <trkpt lat="46.87116" lon="-71.65283">
        <ele>193.3623046875</ele>
        <time>2016-03-23T16:49:18Z</time>
      </trkpt>
      <trkpt lat="46.87123" lon="-71.65317">
        <ele>194.32373046875</ele>
        <time>2016-03-23T16:49:38Z</time>
      </trkpt>
      <trkpt lat="46.87125" lon="-71.65345">
        <ele>194.80432128906</ele>
        <time>2016-03-23T16:49:55Z</time>
      </trkpt>
      <trkpt lat="46.87139" lon="-71.65365">
        <ele>195.28491210938</ele>
        <time>2016-03-23T16:50:12Z</time>
      </trkpt>
      <trkpt lat="46.87148" lon="-71.65382">
        <ele>196.24633789062</ele>
        <time>2016-03-23T16:50:25Z</time>
      </trkpt>
      <trkpt lat="46.8716" lon="-71.65404">
        <ele>195.765625</ele>
        <time>2016-03-23T16:50:41Z</time>
      </trkpt>
      <trkpt lat="46.87162" lon="-71.65409">
        <ele>196.72692871094</ele>
        <time>2016-03-23T16:50:45Z</time>
      </trkpt>
      <trkpt lat="46.87164" lon="-71.65435">
        <ele>199.13012695312</ele>
        <time>2016-03-23T16:51:01Z</time>
      </trkpt>
      <trkpt lat="46.87172" lon="-71.65459">
        <ele>199.13012695312</ele>
        <time>2016-03-23T16:51:16Z</time>
      </trkpt>
      <trkpt lat="46.87181" lon="-71.65481">
        <ele>201.05285644531</ele>
        <time>2016-03-23T16:51:31Z</time>
      </trkpt>
      <trkpt lat="46.87184" lon="-71.65491">
        <ele>201.05285644531</ele>
        <time>2016-03-23T16:51:37Z</time>
      </trkpt>
      <trkpt lat="46.87187" lon="-71.65504">
        <ele>202.01428222656</ele>
        <time>2016-03-23T16:51:45Z</time>
      </trkpt>
      <trkpt lat="46.87191" lon="-71.6553">
        <ele>202.97546386719</ele>
        <time>2016-03-23T16:52:00Z</time>
      </trkpt>
      <trkpt lat="46.87192" lon="-71.65533">
        <ele>203.45617675781</ele>
        <time>2016-03-23T16:52:02Z</time>
      </trkpt>
      <trkpt lat="46.87203" lon="-71.65551">
        <ele>203.93688964844</ele>
        <time>2016-03-23T16:52:15Z</time>
      </trkpt>
      <trkpt lat="46.87212" lon="-71.65559">
        <ele>205.37878417969</ele>
        <time>2016-03-23T16:52:26Z</time>
      </trkpt>
      <trkpt lat="46.87221" lon="-71.6556">
        <ele>205.37878417969</ele>
        <time>2016-03-23T16:52:33Z</time>
      </trkpt>
      <trkpt lat="46.87225" lon="-71.65562">
        <ele>205.85949707031</ele>
        <time>2016-03-23T16:52:37Z</time>
      </trkpt>
      <trkpt lat="46.87241" lon="-71.6557">
        <ele>205.85949707031</ele>
        <time>2016-03-23T16:52:52Z</time>
      </trkpt>
      <trkpt lat="46.87257" lon="-71.65578">
        <ele>207.78210449219</ele>
        <time>2016-03-23T16:53:07Z</time>
      </trkpt>
      <trkpt lat="46.87272" lon="-71.65587">
        <ele>208.74340820312</ele>
        <time>2016-03-23T16:53:22Z</time>
      </trkpt>
      <trkpt lat="46.87284" lon="-71.65606">
        <ele>208.26281738281</ele>
        <time>2016-03-23T16:53:37Z</time>
      </trkpt>
      <trkpt lat="46.87304" lon="-71.65612">
        <ele>208.26281738281</ele>
        <time>2016-03-23T16:53:52Z</time>
      </trkpt>
      <trkpt lat="46.87322" lon="-71.65622">
        <ele>208.26281738281</ele>
        <time>2016-03-23T16:54:08Z</time>
      </trkpt>
      <trkpt lat="46.87332" lon="-71.65629">
        <ele>207.78210449219</ele>
        <time>2016-03-23T16:54:19Z</time>
      </trkpt>
      <trkpt lat="46.87335" lon="-71.65635">
        <ele>209.22412109375</ele>
        <time>2016-03-23T16:54:23Z</time>
      </trkpt>
      <trkpt lat="46.87339" lon="-71.65643">
        <ele>208.74340820312</ele>
        <time>2016-03-23T16:54:28Z</time>
      </trkpt>
      <trkpt lat="46.87353" lon="-71.65662">
        <ele>210.18542480469</ele>
        <time>2016-03-23T16:54:44Z</time>
      </trkpt>
      <trkpt lat="46.87355" lon="-71.65663">
        <ele>209.70483398438</ele>
        <time>2016-03-23T16:54:46Z</time>
      </trkpt>
      <trkpt lat="46.87357" lon="-71.65665">
        <ele>210.18542480469</ele>
        <time>2016-03-23T16:54:48Z</time>
      </trkpt>
      <trkpt lat="46.87361" lon="-71.65671">
        <ele>210.666015625</ele>
        <time>2016-03-23T16:54:53Z</time>
      </trkpt>
      <trkpt lat="46.87377" lon="-71.6568">
        <ele>211.62744140625</ele>
        <time>2016-03-23T16:55:08Z</time>
      </trkpt>
      <trkpt lat="46.87397" lon="-71.65698">
        <ele>212.10803222656</ele>
        <time>2016-03-23T16:55:26Z</time>
      </trkpt>
      <trkpt lat="46.87415" lon="-71.65711">
        <ele>213.0693359375</ele>
        <time>2016-03-23T16:55:41Z</time>
      </trkpt>
      <trkpt lat="46.87426" lon="-71.65729">
        <ele>214.99194335938</ele>
        <time>2016-03-23T16:55:55Z</time>
      </trkpt>
      <trkpt lat="46.87437" lon="-71.65748">
        <ele>214.99194335938</ele>
        <time>2016-03-23T16:56:09Z</time>
      </trkpt>
      <trkpt lat="46.87451" lon="-71.65765">
        <ele>216.43395996094</ele>
        <time>2016-03-23T16:56:25Z</time>
      </trkpt>
      <trkpt lat="46.87472" lon="-71.65782">
        <ele>217.39538574219</ele>
        <time>2016-03-23T16:56:44Z</time>
      </trkpt>
      <trkpt lat="46.87484" lon="-71.65791">
        <ele>218.35656738281</ele>
        <time>2016-03-23T16:56:55Z</time>
      </trkpt>
      <trkpt lat="46.87495" lon="-71.65806">
        <ele>219.31799316406</ele>
        <time>2016-03-23T16:57:09Z</time>
      </trkpt>
      <trkpt lat="46.87497" lon="-71.65809">
        <ele>220.75988769531</ele>
        <time>2016-03-23T16:57:12Z</time>
      </trkpt>
      <trkpt lat="46.875" lon="-71.65812">
        <ele>221.24060058594</ele>
        <time>2016-03-23T16:57:33Z</time>
      </trkpt>
      <trkpt lat="46.87503" lon="-71.65821">
        <ele>221.72119140625</ele>
        <time>2016-03-23T16:57:51Z</time>
      </trkpt>
      <trkpt lat="46.87509" lon="-71.65836">
        <ele>223.64379882812</ele>
        <time>2016-03-23T16:58:03Z</time>
      </trkpt>
      <trkpt lat="46.87513" lon="-71.65849">
        <ele>226.04711914062</ele>
        <time>2016-03-23T16:58:12Z</time>
      </trkpt>
      <trkpt lat="46.87521" lon="-71.65873">
        <ele>227.9697265625</ele>
        <time>2016-03-23T16:58:29Z</time>
      </trkpt>
      <trkpt lat="46.87522" lon="-71.65879">
        <ele>227.9697265625</ele>
        <time>2016-03-23T16:58:33Z</time>
      </trkpt>
      <trkpt lat="46.87522" lon="-71.65903">
        <ele>228.93115234375</ele>
        <time>2016-03-23T16:58:47Z</time>
      </trkpt>
      <trkpt lat="46.87525" lon="-71.6593">
        <ele>228.93115234375</ele>
        <time>2016-03-23T16:59:03Z</time>
      </trkpt>
      <trkpt lat="46.87531" lon="-71.65954">
        <ele>230.373046875</ele>
        <time>2016-03-23T16:59:18Z</time>
      </trkpt>
      <trkpt lat="46.87533" lon="-71.65963">
        <ele>229.41174316406</ele>
        <time>2016-03-23T16:59:23Z</time>
      </trkpt>
      <trkpt lat="46.87544" lon="-71.65989">
        <ele>228.93115234375</ele>
        <time>2016-03-23T16:59:41Z</time>
      </trkpt>
      <trkpt lat="46.87553" lon="-71.66017">
        <ele>228.93115234375</ele>
        <time>2016-03-23T16:59:58Z</time>
      </trkpt>
      <trkpt lat="46.8756" lon="-71.66027">
        <ele>229.41174316406</ele>
        <time>2016-03-23T17:00:06Z</time>
      </trkpt>
      <trkpt lat="46.87557" lon="-71.66057">
        <ele>229.89233398438</ele>
        <time>2016-03-23T17:00:23Z</time>
      </trkpt>
      <trkpt lat="46.8755" lon="-71.66088">
        <ele>229.41174316406</ele>
        <time>2016-03-23T17:00:41Z</time>
      </trkpt>
      <trkpt lat="46.87551" lon="-71.66093">
        <ele>229.41174316406</ele>
        <time>2016-03-23T17:00:44Z</time>
      </trkpt>
      <trkpt lat="46.87546" lon="-71.6612">
        <ele>228.93115234375</ele>
        <time>2016-03-23T17:01:02Z</time>
      </trkpt>
      <trkpt lat="46.87541" lon="-71.66124">
        <ele>229.89233398438</ele>
        <time>2016-03-23T17:01:12Z</time>
      </trkpt>
      <trkpt lat="46.87524" lon="-71.66117">
        <ele>230.85375976562</ele>
        <time>2016-03-23T17:01:29Z</time>
      </trkpt>
      <trkpt lat="46.87521" lon="-71.66119">
        <ele>231.33435058594</ele>
        <time>2016-03-23T17:01:32Z</time>
      </trkpt>
      <trkpt lat="46.87515" lon="-71.66134">
        <ele>230.85375976562</ele>
        <time>2016-03-23T17:01:42Z</time>
      </trkpt>
      <trkpt lat="46.87509" lon="-71.66156">
        <ele>230.85375976562</ele>
        <time>2016-03-23T17:01:56Z</time>
      </trkpt>
      <trkpt lat="46.87508" lon="-71.6616">
        <ele>229.89233398438</ele>
        <time>2016-03-23T17:01:58Z</time>
      </trkpt>
      <trkpt lat="46.87506" lon="-71.66186">
        <ele>229.41174316406</ele>
        <time>2016-03-23T17:02:14Z</time>
      </trkpt>
      <trkpt lat="46.87501" lon="-71.66212">
        <ele>228.93115234375</ele>
        <time>2016-03-23T17:02:29Z</time>
      </trkpt>
      <trkpt lat="46.875" lon="-71.66216">
        <ele>228.93115234375</ele>
        <time>2016-03-23T17:02:32Z</time>
      </trkpt>
      <trkpt lat="46.87498" lon="-71.66238">
        <ele>231.33435058594</ele>
        <time>2016-03-23T17:02:47Z</time>
      </trkpt>
      <trkpt lat="46.87496" lon="-71.66243">
        <ele>230.373046875</ele>
        <time>2016-03-23T17:03:02Z</time>
      </trkpt>
      <trkpt lat="46.8749" lon="-71.66259">
        <ele>229.41174316406</ele>
        <time>2016-03-23T17:03:13Z</time>
      </trkpt>
      <trkpt lat="46.87487" lon="-71.66281">
        <ele>230.373046875</ele>
        <time>2016-03-23T17:03:30Z</time>
      </trkpt>
      <trkpt lat="46.87488" lon="-71.66285">
        <ele>230.373046875</ele>
        <time>2016-03-23T17:03:33Z</time>
      </trkpt>
      <trkpt lat="46.87492" lon="-71.66311">
        <ele>229.89233398438</ele>
        <time>2016-03-23T17:03:50Z</time>
      </trkpt>
      <trkpt lat="46.87494" lon="-71.66329">
        <ele>229.89233398438</ele>
        <time>2016-03-23T17:04:04Z</time>
      </trkpt>
      <trkpt lat="46.87495" lon="-71.66344">
        <ele>229.89233398438</ele>
        <time>2016-03-23T17:04:13Z</time>
      </trkpt>
      <trkpt lat="46.87498" lon="-71.66364">
        <ele>229.89233398438</ele>
        <time>2016-03-23T17:04:25Z</time>
      </trkpt>
      <trkpt lat="46.87508" lon="-71.66394">
        <ele>229.89233398438</ele>
        <time>2016-03-23T17:04:45Z</time>
      </trkpt>
      <trkpt lat="46.87518" lon="-71.66411">
        <ele>229.89233398438</ele>
        <time>2016-03-23T17:05:02Z</time>
      </trkpt>
      <trkpt lat="46.87529" lon="-71.66423">
        <ele>228.93115234375</ele>
        <time>2016-03-23T17:05:19Z</time>
      </trkpt>
      <trkpt lat="46.87537" lon="-71.66438">
        <ele>228.45043945312</ele>
        <time>2016-03-23T17:05:36Z</time>
      </trkpt>
      <trkpt lat="46.87541" lon="-71.66447">
        <ele>228.45043945312</ele>
        <time>2016-03-23T17:05:51Z</time>
      </trkpt>
      <trkpt lat="46.87548" lon="-71.66465">
        <ele>228.93115234375</ele>
        <time>2016-03-23T17:06:05Z</time>
      </trkpt>
      <trkpt lat="46.87553" lon="-71.66487">
        <ele>228.93115234375</ele>
        <time>2016-03-23T17:06:19Z</time>
      </trkpt>
      <trkpt lat="46.87571" lon="-71.66506">
        <ele>228.93115234375</ele>
        <time>2016-03-23T17:06:39Z</time>
      </trkpt>
      <trkpt lat="46.87576" lon="-71.66511">
        <ele>229.41174316406</ele>
        <time>2016-03-23T17:07:06Z</time>
      </trkpt>
      <trkpt lat="46.87581" lon="-71.66517">
        <ele>228.93115234375</ele>
        <time>2016-03-23T17:07:11Z</time>
      </trkpt>
      <trkpt lat="46.87602" lon="-71.66535">
        <ele>229.89233398438</ele>
        <time>2016-03-23T17:07:32Z</time>
      </trkpt>
      <trkpt lat="46.87612" lon="-71.66546">
        <ele>229.41174316406</ele>
        <time>2016-03-23T17:07:49Z</time>
      </trkpt>
      <trkpt lat="46.87623" lon="-71.6656">
        <ele>229.41174316406</ele>
        <time>2016-03-23T17:08:07Z</time>
      </trkpt>
      <trkpt lat="46.87639" lon="-71.66583">
        <ele>229.89233398438</ele>
        <time>2016-03-23T17:08:26Z</time>
      </trkpt>
      <trkpt lat="46.87659" lon="-71.66613">
        <ele>229.89233398438</ele>
        <time>2016-03-23T17:08:49Z</time>
      </trkpt>
      <trkpt lat="46.87677" lon="-71.66638">
        <ele>229.89233398438</ele>
        <time>2016-03-23T17:09:09Z</time>
      </trkpt>
      <trkpt lat="46.87685" lon="-71.66648">
        <ele>229.41174316406</ele>
        <time>2016-03-23T17:09:22Z</time>
      </trkpt>
      <trkpt lat="46.87689" lon="-71.66652">
        <ele>228.93115234375</ele>
        <time>2016-03-23T17:09:26Z</time>
      </trkpt>
      <trkpt lat="46.87708" lon="-71.66678">
        <ele>228.93115234375</ele>
        <time>2016-03-23T17:09:47Z</time>
      </trkpt>
      <trkpt lat="46.87725" lon="-71.66702">
        <ele>228.93115234375</ele>
        <time>2016-03-23T17:10:06Z</time>
      </trkpt>
      <trkpt lat="46.87739" lon="-71.66725">
        <ele>229.41174316406</ele>
        <time>2016-03-23T17:10:23Z</time>
      </trkpt>
      <trkpt lat="46.87747" lon="-71.66734">
        <ele>228.45043945312</ele>
        <time>2016-03-23T17:10:31Z</time>
      </trkpt>
      <trkpt lat="46.87766" lon="-71.66764">
        <ele>228.45043945312</ele>
        <time>2016-03-23T17:10:53Z</time>
      </trkpt>
      <trkpt lat="46.87782" lon="-71.66782">
        <ele>227.9697265625</ele>
        <time>2016-03-23T17:11:10Z</time>
      </trkpt>
      <trkpt lat="46.87794" lon="-71.66803">
        <ele>228.93115234375</ele>
        <time>2016-03-23T17:11:27Z</time>
      </trkpt>
      <trkpt lat="46.87811" lon="-71.66826">
        <ele>228.93115234375</ele>
        <time>2016-03-23T17:11:46Z</time>
      </trkpt>
      <trkpt lat="46.87812" lon="-71.66827">
        <ele>228.93115234375</ele>
        <time>2016-03-23T17:11:47Z</time>
      </trkpt>
      <trkpt lat="46.8782" lon="-71.66867">
        <ele>229.41174316406</ele>
        <time>2016-03-23T17:12:10Z</time>
      </trkpt>
      <trkpt lat="46.87823" lon="-71.66887">
        <ele>229.41174316406</ele>
        <time>2016-03-23T17:12:25Z</time>
      </trkpt>
      <trkpt lat="46.87838" lon="-71.66907">
        <ele>229.41174316406</ele>
        <time>2016-03-23T17:12:42Z</time>
      </trkpt>
      <trkpt lat="46.87852" lon="-71.66928">
        <ele>229.89233398438</ele>
        <time>2016-03-23T17:12:59Z</time>
      </trkpt>
      <trkpt lat="46.87868" lon="-71.66944">
        <ele>230.373046875</ele>
        <time>2016-03-23T17:13:15Z</time>
      </trkpt>
      <trkpt lat="46.87877" lon="-71.66969">
        <ele>228.93115234375</ele>
        <time>2016-03-23T17:13:30Z</time>
      </trkpt>
      <trkpt lat="46.8789" lon="-71.66993">
        <ele>229.41174316406</ele>
        <time>2016-03-23T17:13:47Z</time>
      </trkpt>
      <trkpt lat="46.87903" lon="-71.67015">
        <ele>228.93115234375</ele>
        <time>2016-03-23T17:14:03Z</time>
      </trkpt>
      <trkpt lat="46.87913" lon="-71.67043">
        <ele>229.41174316406</ele>
        <time>2016-03-23T17:14:21Z</time>
      </trkpt>
      <trkpt lat="46.87916" lon="-71.67049">
        <ele>228.93115234375</ele>
        <time>2016-03-23T17:14:25Z</time>
      </trkpt>
      <trkpt lat="46.87918" lon="-71.67059">
        <ele>228.45043945312</ele>
        <time>2016-03-23T17:14:31Z</time>
      </trkpt>
      <trkpt lat="46.8792" lon="-71.67067">
        <ele>228.45043945312</ele>
        <time>2016-03-23T17:14:36Z</time>
      </trkpt>
      <trkpt lat="46.87935" lon="-71.67088">
        <ele>227.9697265625</ele>
        <time>2016-03-23T17:14:54Z</time>
      </trkpt>
      <trkpt lat="46.87955" lon="-71.67097">
        <ele>229.89233398438</ele>
        <time>2016-03-23T17:15:11Z</time>
      </trkpt>
      <trkpt lat="46.87968" lon="-71.67108">
        <ele>230.373046875</ele>
        <time>2016-03-23T17:15:31Z</time>
      </trkpt>
      <trkpt lat="46.8798" lon="-71.67123">
        <ele>232.29577636719</ele>
        <time>2016-03-23T17:15:47Z</time>
      </trkpt>
      <trkpt lat="46.87997" lon="-71.67143">
        <ele>233.73767089844</ele>
        <time>2016-03-23T17:16:06Z</time>
      </trkpt>
      <trkpt lat="46.88018" lon="-71.67152">
        <ele>235.1796875</ele>
        <time>2016-03-23T17:16:25Z</time>
      </trkpt>
      <trkpt lat="46.88036" lon="-71.67163">
        <ele>236.14099121094</ele>
        <time>2016-03-23T17:16:44Z</time>
      </trkpt>
      <trkpt lat="46.8804" lon="-71.67165">
        <ele>236.62170410156</ele>
        <time>2016-03-23T17:17:04Z</time>
      </trkpt>
      <trkpt lat="46.88035" lon="-71.67166">
        <ele>236.14099121094</ele>
        <time>2016-03-23T17:17:32Z</time>
      </trkpt>
      <trkpt lat="46.88038" lon="-71.6717">
        <ele>238.06359863281</ele>
        <time>2016-03-23T17:17:49Z</time>
      </trkpt>
      <trkpt lat="46.88039" lon="-71.67172">
        <ele>237.58288574219</ele>
        <time>2016-03-23T17:18:04Z</time>
      </trkpt>
      <trkpt lat="46.88041" lon="-71.67169">
        <ele>237.58288574219</ele>
        <time>2016-03-23T17:18:16Z</time>
      </trkpt>
      <trkpt lat="46.88042" lon="-71.67167">
        <ele>238.06359863281</ele>
        <time>2016-03-23T17:18:36Z</time>
      </trkpt>
      <trkpt lat="46.88042" lon="-71.67164">
        <ele>237.10229492188</ele>
        <time>2016-03-23T17:18:48Z</time>
      </trkpt>
      <trkpt lat="46.88036" lon="-71.67149">
        <ele>235.66027832031</ele>
        <time>2016-03-23T17:19:04Z</time>
      </trkpt>
      <trkpt lat="46.88033" lon="-71.67151">
        <ele>236.14099121094</ele>
        <time>2016-03-23T17:19:32Z</time>
      </trkpt>
      <trkpt lat="46.88036" lon="-71.67155">
        <ele>237.10229492188</ele>
        <time>2016-03-23T17:19:56Z</time>
      </trkpt>
      <trkpt lat="46.88036" lon="-71.67156">
        <ele>236.62170410156</ele>
        <time>2016-03-23T17:20:04Z</time>
      </trkpt>
      <trkpt lat="46.8804" lon="-71.67169">
        <ele>237.10229492188</ele>
        <time>2016-03-23T17:20:26Z</time>
      </trkpt>
      <trkpt lat="46.88041" lon="-71.67167">
        <ele>237.10229492188</ele>
        <time>2016-03-23T17:20:40Z</time>
      </trkpt>
      <trkpt lat="46.88039" lon="-71.67165">
        <ele>236.14099121094</ele>
        <time>2016-03-23T17:20:55Z</time>
      </trkpt>
      <trkpt lat="46.88039" lon="-71.67176">
        <ele>237.10229492188</ele>
        <time>2016-03-23T17:21:10Z</time>
      </trkpt>
      <trkpt lat="46.8804" lon="-71.67177">
        <ele>237.10229492188</ele>
        <time>2016-03-23T17:21:27Z</time>
      </trkpt>
      <trkpt lat="46.88042" lon="-71.67176">
        <ele>238.54431152344</ele>
        <time>2016-03-23T17:24:05Z</time>
      </trkpt>
      <trkpt lat="46.88041" lon="-71.67172">
        <ele>238.54431152344</ele>
        <time>2016-03-23T17:24:21Z</time>
      </trkpt>
      <trkpt lat="46.88041" lon="-71.67164">
        <ele>238.06359863281</ele>
        <time>2016-03-23T17:24:27Z</time>
      </trkpt>
      <trkpt lat="46.88044" lon="-71.67157">
        <ele>238.06359863281</ele>
        <time>2016-03-23T17:24:33Z</time>
      </trkpt>
      <trkpt lat="46.88055" lon="-71.67148">
        <ele>237.58288574219</ele>
        <time>2016-03-23T17:24:50Z</time>
      </trkpt>
      <trkpt lat="46.8807" lon="-71.67129">
        <ele>236.62170410156</ele>
        <time>2016-03-23T17:25:08Z</time>
      </trkpt>
      <trkpt lat="46.88078" lon="-71.67106">
        <ele>236.62170410156</ele>
        <time>2016-03-23T17:25:23Z</time>
      </trkpt>
      <trkpt lat="46.88085" lon="-71.67095">
        <ele>236.62170410156</ele>
        <time>2016-03-23T17:25:40Z</time>
      </trkpt>
      <trkpt lat="46.88085" lon="-71.67094">
        <ele>237.10229492188</ele>
        <time>2016-03-23T17:26:08Z</time>
      </trkpt>
      <trkpt lat="46.88093" lon="-71.67078">
        <ele>237.10229492188</ele>
        <time>2016-03-23T17:26:24Z</time>
      </trkpt>
      <trkpt lat="46.88096" lon="-71.67077">
        <ele>237.58288574219</ele>
        <time>2016-03-23T17:26:28Z</time>
      </trkpt>
      <trkpt lat="46.88107" lon="-71.67066">
        <ele>236.62170410156</ele>
        <time>2016-03-23T17:26:42Z</time>
      </trkpt>
      <trkpt lat="46.88114" lon="-71.6706">
        <ele>237.10229492188</ele>
        <time>2016-03-23T17:26:50Z</time>
      </trkpt>
      <trkpt lat="46.88117" lon="-71.67057">
        <ele>237.58288574219</ele>
        <time>2016-03-23T17:26:54Z</time>
      </trkpt>
      <trkpt lat="46.88132" lon="-71.67041">
        <ele>238.54431152344</ele>
        <time>2016-03-23T17:27:11Z</time>
      </trkpt>
      <trkpt lat="46.88141" lon="-71.67019">
        <ele>237.58288574219</ele>
        <time>2016-03-23T17:27:25Z</time>
      </trkpt>
      <trkpt lat="46.88146" lon="-71.66998">
        <ele>236.62170410156</ele>
        <time>2016-03-23T17:27:37Z</time>
      </trkpt>
      <trkpt lat="46.88147" lon="-71.66996">
        <ele>237.10229492188</ele>
        <time>2016-03-23T17:27:39Z</time>
      </trkpt>
      <trkpt lat="46.88156" lon="-71.66984">
        <ele>236.62170410156</ele>
        <time>2016-03-23T17:27:53Z</time>
      </trkpt>
      <trkpt lat="46.88163" lon="-71.66975">
        <ele>237.10229492188</ele>
        <time>2016-03-23T17:28:01Z</time>
      </trkpt>
      <trkpt lat="46.88177" lon="-71.66955">
        <ele>236.14099121094</ele>
        <time>2016-03-23T17:28:18Z</time>
      </trkpt>
      <trkpt lat="46.8818" lon="-71.66938">
        <ele>235.66027832031</ele>
        <time>2016-03-23T17:28:31Z</time>
      </trkpt>
      <trkpt lat="46.88182" lon="-71.66927">
        <ele>235.1796875</ele>
        <time>2016-03-23T17:28:40Z</time>
      </trkpt>
      <trkpt lat="46.88194" lon="-71.66907">
        <ele>235.66027832031</ele>
        <time>2016-03-23T17:28:56Z</time>
      </trkpt>
      <trkpt lat="46.88198" lon="-71.66898">
        <ele>235.1796875</ele>
        <time>2016-03-23T17:29:02Z</time>
      </trkpt>
      <trkpt lat="46.88199" lon="-71.6689">
        <ele>235.1796875</ele>
        <time>2016-03-23T17:29:07Z</time>
      </trkpt>
      <trkpt lat="46.88201" lon="-71.66883">
        <ele>235.1796875</ele>
        <time>2016-03-23T17:29:12Z</time>
      </trkpt>
      <trkpt lat="46.88204" lon="-71.66877">
        <ele>236.14099121094</ele>
        <time>2016-03-23T17:29:17Z</time>
      </trkpt>
      <trkpt lat="46.8821" lon="-71.66853">
        <ele>237.58288574219</ele>
        <time>2016-03-23T17:29:34Z</time>
      </trkpt>
      <trkpt lat="46.88212" lon="-71.66833">
        <ele>238.54431152344</ele>
        <time>2016-03-23T17:29:47Z</time>
      </trkpt>
      <trkpt lat="46.88216" lon="-71.66811">
        <ele>240.94763183594</ele>
        <time>2016-03-23T17:30:02Z</time>
      </trkpt>
      <trkpt lat="46.88216" lon="-71.6681">
        <ele>240.94763183594</ele>
        <time>2016-03-23T17:30:03Z</time>
      </trkpt>
      <trkpt lat="46.8822" lon="-71.6679">
        <ele>243.83154296875</ele>
        <time>2016-03-23T17:30:19Z</time>
      </trkpt>
      <trkpt lat="46.8822" lon="-71.66789">
        <ele>243.83154296875</ele>
        <time>2016-03-23T17:30:20Z</time>
      </trkpt>
      <trkpt lat="46.88219" lon="-71.6676">
        <ele>244.79284667969</ele>
        <time>2016-03-23T17:30:37Z</time>
      </trkpt>
      <trkpt lat="46.88221" lon="-71.66749">
        <ele>245.2734375</ele>
        <time>2016-03-23T17:30:45Z</time>
      </trkpt>
      <trkpt lat="46.88224" lon="-71.66724">
        <ele>246.71545410156</ele>
        <time>2016-03-23T17:31:01Z</time>
      </trkpt>
      <trkpt lat="46.88226" lon="-71.6671">
        <ele>247.19604492188</ele>
        <time>2016-03-23T17:31:10Z</time>
      </trkpt>
      <trkpt lat="46.88225" lon="-71.66679">
        <ele>246.23486328125</ele>
        <time>2016-03-23T17:31:29Z</time>
      </trkpt>
      <trkpt lat="46.88233" lon="-71.66663">
        <ele>248.15759277344</ele>
        <time>2016-03-23T17:31:43Z</time>
      </trkpt>
      <trkpt lat="46.88234" lon="-71.66661">
        <ele>248.15759277344</ele>
        <time>2016-03-23T17:31:45Z</time>
      </trkpt>
      <trkpt lat="46.88242" lon="-71.6665">
        <ele>251.52209472656</ele>
        <time>2016-03-23T17:31:58Z</time>
      </trkpt>
      <trkpt lat="46.88248" lon="-71.66643">
        <ele>254.88659667969</ele>
        <time>2016-03-23T17:32:09Z</time>
      </trkpt>
      <trkpt lat="46.8825" lon="-71.66641">
        <ele>256.32873535156</ele>
        <time>2016-03-23T17:32:14Z</time>
      </trkpt>
      <trkpt lat="46.88256" lon="-71.66635">
        <ele>256.80932617188</ele>
        <time>2016-03-23T17:32:30Z</time>
      </trkpt>
      <trkpt lat="46.8826" lon="-71.66644">
        <ele>256.80932617188</ele>
        <time>2016-03-23T17:32:43Z</time>
      </trkpt>
      <trkpt lat="46.88261" lon="-71.66646">
        <ele>257.2900390625</ele>
        <time>2016-03-23T17:32:45Z</time>
      </trkpt>
      <trkpt lat="46.8826" lon="-71.6666">
        <ele>256.80932617188</ele>
        <time>2016-03-23T17:32:53Z</time>
      </trkpt>
      <trkpt lat="46.88262" lon="-71.66666">
        <ele>257.77075195312</ele>
        <time>2016-03-23T17:32:57Z</time>
      </trkpt>
      <trkpt lat="46.88266" lon="-71.66689">
        <ele>257.77075195312</ele>
        <time>2016-03-23T17:33:14Z</time>
      </trkpt>
      <trkpt lat="46.88272" lon="-71.66706">
        <ele>258.25134277344</ele>
        <time>2016-03-23T17:33:27Z</time>
      </trkpt>
      <trkpt lat="46.88277" lon="-71.66725">
        <ele>260.65454101562</ele>
        <time>2016-03-23T17:33:42Z</time>
      </trkpt>
      <trkpt lat="46.88282" lon="-71.66733">
        <ele>263.53857421875</ele>
        <time>2016-03-23T17:33:54Z</time>
      </trkpt>
      <trkpt lat="46.88284" lon="-71.66735">
        <ele>265.46130371094</ele>
        <time>2016-03-23T17:33:59Z</time>
      </trkpt>
      <trkpt lat="46.88291" lon="-71.66747">
        <ele>267.38391113281</ele>
        <time>2016-03-23T17:34:13Z</time>
      </trkpt>
      <trkpt lat="46.88295" lon="-71.66753">
        <ele>267.86450195312</ele>
        <time>2016-03-23T17:34:18Z</time>
      </trkpt>
      <trkpt lat="46.88298" lon="-71.66758">
        <ele>268.34509277344</ele>
        <time>2016-03-23T17:34:23Z</time>
      </trkpt>
      <trkpt lat="46.88304" lon="-71.66775">
        <ele>270.26770019531</ele>
        <time>2016-03-23T17:34:38Z</time>
      </trkpt>
      <trkpt lat="46.88305" lon="-71.66782">
        <ele>270.74841308594</ele>
        <time>2016-03-23T17:34:43Z</time>
      </trkpt>
      <trkpt lat="46.88306" lon="-71.66811">
        <ele>270.74841308594</ele>
        <time>2016-03-23T17:34:59Z</time>
      </trkpt>
      <trkpt lat="46.88309" lon="-71.66839">
        <ele>271.22912597656</ele>
        <time>2016-03-23T17:35:17Z</time>
      </trkpt>
      <trkpt lat="46.88313" lon="-71.66859">
        <ele>272.1904296875</ele>
        <time>2016-03-23T17:35:30Z</time>
      </trkpt>
      <trkpt lat="46.88317" lon="-71.66867">
        <ele>273.15185546875</ele>
        <time>2016-03-23T17:35:36Z</time>
      </trkpt>
      <trkpt lat="46.88326" lon="-71.66879">
        <ele>275.07446289062</ele>
        <time>2016-03-23T17:35:53Z</time>
      </trkpt>
      <trkpt lat="46.88329" lon="-71.66882">
        <ele>277.47766113281</ele>
        <time>2016-03-23T17:35:59Z</time>
      </trkpt>
      <trkpt lat="46.88338" lon="-71.66887">
        <ele>280.36169433594</ele>
        <time>2016-03-23T17:36:15Z</time>
      </trkpt>
      <trkpt lat="46.88345" lon="-71.66892">
        <ele>283.24560546875</ele>
        <time>2016-03-23T17:36:26Z</time>
      </trkpt>
      <trkpt lat="46.88354" lon="-71.66907">
        <ele>284.68762207031</ele>
        <time>2016-03-23T17:36:41Z</time>
      </trkpt>
      <trkpt lat="46.88359" lon="-71.66924">
        <ele>285.64880371094</ele>
        <time>2016-03-23T17:36:56Z</time>
      </trkpt>
      <trkpt lat="46.88358" lon="-71.6693">
        <ele>286.12951660156</ele>
        <time>2016-03-23T17:37:12Z</time>
      </trkpt>
      <trkpt lat="46.88363" lon="-71.66935">
        <ele>287.57141113281</ele>
        <time>2016-03-23T17:37:28Z</time>
      </trkpt>
      <trkpt lat="46.8837" lon="-71.66928">
        <ele>289.01354980469</ele>
        <time>2016-03-23T17:37:42Z</time>
      </trkpt>
      <trkpt lat="46.88385" lon="-71.66914">
        <ele>292.37817382812</ele>
        <time>2016-03-23T17:37:59Z</time>
      </trkpt>
      <trkpt lat="46.8839" lon="-71.66912">
        <ele>294.30078125</ele>
        <time>2016-03-23T17:38:05Z</time>
      </trkpt>
      <trkpt lat="46.88401" lon="-71.66896">
        <ele>295.26196289062</ele>
        <time>2016-03-23T17:38:20Z</time>
      </trkpt>
      <trkpt lat="46.88402" lon="-71.66894">
        <ele>295.26196289062</ele>
        <time>2016-03-23T17:38:22Z</time>
      </trkpt>
      <trkpt lat="46.88411" lon="-71.66873">
        <ele>296.7041015625</ele>
        <time>2016-03-23T17:38:39Z</time>
      </trkpt>
      <trkpt lat="46.88414" lon="-71.66869">
        <ele>298.14611816406</ele>
        <time>2016-03-23T17:38:43Z</time>
      </trkpt>
      <trkpt lat="46.88422" lon="-71.66856">
        <ele>298.62670898438</ele>
        <time>2016-03-23T17:38:57Z</time>
      </trkpt>
      <trkpt lat="46.88437" lon="-71.66838">
        <ele>301.51062011719</ele>
        <time>2016-03-23T17:39:16Z</time>
      </trkpt>
      <trkpt lat="46.88448" lon="-71.6682">
        <ele>303.43322753906</ele>
        <time>2016-03-23T17:39:32Z</time>
      </trkpt>
      <trkpt lat="46.88454" lon="-71.6679">
        <ele>303.91394042969</ele>
        <time>2016-03-23T17:39:50Z</time>
      </trkpt>
      <trkpt lat="46.88461" lon="-71.66761">
        <ele>304.87524414062</ele>
        <time>2016-03-23T17:40:08Z</time>
      </trkpt>
      <trkpt lat="46.88466" lon="-71.66744">
        <ele>305.35595703125</ele>
        <time>2016-03-23T17:40:21Z</time>
      </trkpt>
      <trkpt lat="46.88465" lon="-71.66732">
        <ele>305.83666992188</ele>
        <time>2016-03-23T17:40:36Z</time>
      </trkpt>
      <trkpt lat="46.88464" lon="-71.66724">
        <ele>305.83666992188</ele>
        <time>2016-03-23T17:40:53Z</time>
      </trkpt>
      <trkpt lat="46.88468" lon="-71.66702">
        <ele>307.27856445312</ele>
        <time>2016-03-23T17:41:08Z</time>
      </trkpt>
      <trkpt lat="46.88471" lon="-71.6668">
        <ele>307.27856445312</ele>
        <time>2016-03-23T17:41:22Z</time>
      </trkpt>
      <trkpt lat="46.88474" lon="-71.66667">
        <ele>307.75927734375</ele>
        <time>2016-03-23T17:41:30Z</time>
      </trkpt>
      <trkpt lat="46.88489" lon="-71.66645">
        <ele>309.68188476562</ele>
        <time>2016-03-23T17:41:48Z</time>
      </trkpt>
      <trkpt lat="46.88498" lon="-71.66622">
        <ele>311.12377929688</ele>
        <time>2016-03-23T17:42:03Z</time>
      </trkpt>
      <trkpt lat="46.88504" lon="-71.66596">
        <ele>310.16247558594</ele>
        <time>2016-03-23T17:42:19Z</time>
      </trkpt>
      <trkpt lat="46.88508" lon="-71.66593">
        <ele>311.12377929688</ele>
        <time>2016-03-23T17:42:24Z</time>
      </trkpt>
      <trkpt lat="46.88518" lon="-71.66591">
        <ele>314.48840332031</ele>
        <time>2016-03-23T17:42:37Z</time>
      </trkpt>
      <trkpt lat="46.88528" lon="-71.66593">
        <ele>317.37243652344</ele>
        <time>2016-03-23T17:42:53Z</time>
      </trkpt>
      <trkpt lat="46.88536" lon="-71.66606">
        <ele>319.77563476562</ele>
        <time>2016-03-23T17:43:08Z</time>
      </trkpt>
      <trkpt lat="46.88537" lon="-71.66619">
        <ele>323.14038085938</ele>
        <time>2016-03-23T17:43:19Z</time>
      </trkpt>
      <trkpt lat="46.88536" lon="-71.66645">
        <ele>325.06298828125</ele>
        <time>2016-03-23T17:43:36Z</time>
      </trkpt>
      <trkpt lat="46.88532" lon="-71.66658">
        <ele>325.54357910156</ele>
        <time>2016-03-23T17:43:51Z</time>
      </trkpt>
      <trkpt lat="46.88527" lon="-71.66679">
        <ele>326.5048828125</ele>
        <time>2016-03-23T17:44:06Z</time>
      </trkpt>
      <trkpt lat="46.88521" lon="-71.66702">
        <ele>326.5048828125</ele>
        <time>2016-03-23T17:44:22Z</time>
      </trkpt>
      <trkpt lat="46.8852" lon="-71.66716">
        <ele>328.42761230469</ele>
        <time>2016-03-23T17:44:33Z</time>
      </trkpt>
      <trkpt lat="46.88519" lon="-71.6674">
        <ele>330.35021972656</ele>
        <time>2016-03-23T17:44:48Z</time>
      </trkpt>
      <trkpt lat="46.88519" lon="-71.66758">
        <ele>332.75354003906</ele>
        <time>2016-03-23T17:45:02Z</time>
      </trkpt>
      <trkpt lat="46.88518" lon="-71.66781">
        <ele>335.15673828125</ele>
        <time>2016-03-23T17:45:16Z</time>
      </trkpt>
      <trkpt lat="46.88515" lon="-71.66799">
        <ele>336.1181640625</ele>
        <time>2016-03-23T17:45:27Z</time>
      </trkpt>
      <trkpt lat="46.88515" lon="-71.66828">
        <ele>338.04077148438</ele>
        <time>2016-03-23T17:45:45Z</time>
      </trkpt>
      <trkpt lat="46.88517" lon="-71.66854">
        <ele>337.56005859375</ele>
        <time>2016-03-23T17:46:02Z</time>
      </trkpt>
      <trkpt lat="46.88517" lon="-71.66857">
        <ele>338.04077148438</ele>
        <time>2016-03-23T17:46:04Z</time>
      </trkpt>
      <trkpt lat="46.88522" lon="-71.66877">
        <ele>339.48266601562</ele>
        <time>2016-03-23T17:46:21Z</time>
      </trkpt>
      <trkpt lat="46.88524" lon="-71.66888">
        <ele>341.4052734375</ele>
        <time>2016-03-23T17:46:30Z</time>
      </trkpt>
      <trkpt lat="46.88527" lon="-71.66917">
        <ele>343.32788085938</ele>
        <time>2016-03-23T17:46:49Z</time>
      </trkpt>
      <trkpt lat="46.88527" lon="-71.66921">
        <ele>343.80859375</ele>
        <time>2016-03-23T17:46:52Z</time>
      </trkpt>
      <trkpt lat="46.8853" lon="-71.66942">
        <ele>346.21203613281</ele>
        <time>2016-03-23T17:47:08Z</time>
      </trkpt>
      <trkpt lat="46.88532" lon="-71.66959">
        <ele>348.615234375</ele>
        <time>2016-03-23T17:47:25Z</time>
      </trkpt>
      <trkpt lat="46.88538" lon="-71.66974">
        <ele>351.01843261719</ele>
        <time>2016-03-23T17:47:41Z</time>
      </trkpt>
      <trkpt lat="46.88542" lon="-71.66994">
        <ele>352.46057128906</ele>
        <time>2016-03-23T17:47:58Z</time>
      </trkpt>
      <trkpt lat="46.88542" lon="-71.67009">
        <ele>355.8251953125</ele>
        <time>2016-03-23T17:48:09Z</time>
      </trkpt>
      <trkpt lat="46.88545" lon="-71.67028">
        <ele>358.22839355469</ele>
        <time>2016-03-23T17:48:26Z</time>
      </trkpt>
      <trkpt lat="46.88544" lon="-71.67052">
        <ele>358.708984375</ele>
        <time>2016-03-23T17:48:42Z</time>
      </trkpt>
      <trkpt lat="46.88535" lon="-71.67076">
        <ele>359.67041015625</ele>
        <time>2016-03-23T17:48:58Z</time>
      </trkpt>
      <trkpt lat="46.88534" lon="-71.67103">
        <ele>359.67041015625</ele>
        <time>2016-03-23T17:49:15Z</time>
      </trkpt>
      <trkpt lat="46.88535" lon="-71.67128">
        <ele>360.63171386719</ele>
        <time>2016-03-23T17:49:32Z</time>
      </trkpt>
      <trkpt lat="46.88538" lon="-71.67151">
        <ele>360.15112304688</ele>
        <time>2016-03-23T17:49:48Z</time>
      </trkpt>
      <trkpt lat="46.8854" lon="-71.67173">
        <ele>363.51574707031</ele>
        <time>2016-03-23T17:50:04Z</time>
      </trkpt>
      <trkpt lat="46.88541" lon="-71.6719">
        <ele>365.9189453125</ele>
        <time>2016-03-23T17:50:17Z</time>
      </trkpt>
      <trkpt lat="46.88539" lon="-71.67212">
        <ele>366.88024902344</ele>
        <time>2016-03-23T17:50:33Z</time>
      </trkpt>
      <trkpt lat="46.88542" lon="-71.67231">
        <ele>367.36096191406</ele>
        <time>2016-03-23T17:50:45Z</time>
      </trkpt>
      <trkpt lat="46.88547" lon="-71.67258">
        <ele>370.24487304688</ele>
        <time>2016-03-23T17:51:05Z</time>
      </trkpt>
      <trkpt lat="46.88549" lon="-71.67279">
        <ele>371.68688964844</ele>
        <time>2016-03-23T17:51:20Z</time>
      </trkpt>
      <trkpt lat="46.88555" lon="-71.67298">
        <ele>373.60949707031</ele>
        <time>2016-03-23T17:51:37Z</time>
      </trkpt>
      <trkpt lat="46.88559" lon="-71.67322">
        <ele>374.09008789062</ele>
        <time>2016-03-23T17:51:53Z</time>
      </trkpt>
      <trkpt lat="46.88566" lon="-71.67341">
        <ele>375.53210449219</ele>
        <time>2016-03-23T17:52:08Z</time>
      </trkpt>
      <trkpt lat="46.88574" lon="-71.67364">
        <ele>377.93542480469</ele>
        <time>2016-03-23T17:52:24Z</time>
      </trkpt>
      <trkpt lat="46.88575" lon="-71.67369">
        <ele>377.93542480469</ele>
        <time>2016-03-23T17:52:27Z</time>
      </trkpt>
      <trkpt lat="46.88582" lon="-71.67385">
        <ele>380.81945800781</ele>
        <time>2016-03-23T17:52:40Z</time>
      </trkpt>
      <trkpt lat="46.88585" lon="-71.67393">
        <ele>381.30004882812</ele>
        <time>2016-03-23T17:52:46Z</time>
      </trkpt>
      <trkpt lat="46.88589" lon="-71.67417">
        <ele>382.74206542969</ele>
        <time>2016-03-23T17:53:01Z</time>
      </trkpt>
      <trkpt lat="46.88587" lon="-71.67446">
        <ele>381.30004882812</ele>
        <time>2016-03-23T17:53:17Z</time>
      </trkpt>
      <trkpt lat="46.88588" lon="-71.67458">
        <ele>381.30004882812</ele>
        <time>2016-03-23T17:53:24Z</time>
      </trkpt>
      <trkpt lat="46.8859" lon="-71.67481">
        <ele>381.30004882812</ele>
        <time>2016-03-23T17:53:39Z</time>
      </trkpt>
      <trkpt lat="46.88594" lon="-71.67497">
        <ele>383.22265625</ele>
        <time>2016-03-23T17:53:51Z</time>
      </trkpt>
      <trkpt lat="46.88601" lon="-71.67519">
        <ele>384.66479492188</ele>
        <time>2016-03-23T17:54:06Z</time>
      </trkpt>
      <trkpt lat="46.88609" lon="-71.67538">
        <ele>384.18408203125</ele>
        <time>2016-03-23T17:54:20Z</time>
      </trkpt>
      <trkpt lat="46.8861" lon="-71.67554">
        <ele>384.66479492188</ele>
        <time>2016-03-23T17:54:29Z</time>
      </trkpt>
      <trkpt lat="46.886" lon="-71.67578">
        <ele>385.14538574219</ele>
        <time>2016-03-23T17:54:46Z</time>
      </trkpt>
      <trkpt lat="46.88594" lon="-71.67587">
        <ele>385.14538574219</ele>
        <time>2016-03-23T17:54:53Z</time>
      </trkpt>
      <trkpt lat="46.8859" lon="-71.67597">
        <ele>384.18408203125</ele>
        <time>2016-03-23T17:55:02Z</time>
      </trkpt>
      <trkpt lat="46.88576" lon="-71.67601">
        <ele>379.85803222656</ele>
        <time>2016-03-23T17:55:15Z</time>
      </trkpt>
      <trkpt lat="46.88561" lon="-71.67604">
        <ele>377.93542480469</ele>
        <time>2016-03-23T17:55:30Z</time>
      </trkpt>
      <trkpt lat="46.8856" lon="-71.67604">
        <ele>377.93542480469</ele>
        <time>2016-03-23T17:55:31Z</time>
      </trkpt>
      <trkpt lat="46.88551" lon="-71.67603">
        <ele>377.45483398438</ele>
        <time>2016-03-23T17:55:41Z</time>
      </trkpt>
      <trkpt lat="46.88541" lon="-71.67607">
        <ele>376.97424316406</ele>
        <time>2016-03-23T17:55:50Z</time>
      </trkpt>
      <trkpt lat="46.88537" lon="-71.67617">
        <ele>376.49353027344</ele>
        <time>2016-03-23T17:56:10Z</time>
      </trkpt>
      <trkpt lat="46.88533" lon="-71.67626">
        <ele>375.05151367188</ele>
        <time>2016-03-23T17:56:29Z</time>
      </trkpt>
      <trkpt lat="46.88532" lon="-71.67637">
        <ele>371.68688964844</ele>
        <time>2016-03-23T17:56:38Z</time>
      </trkpt>
      <trkpt lat="46.88529" lon="-71.6764">
        <ele>370.7255859375</ele>
        <time>2016-03-23T17:56:42Z</time>
      </trkpt>
      <trkpt lat="46.88518" lon="-71.67654">
        <ele>369.76428222656</ele>
        <time>2016-03-23T17:56:58Z</time>
      </trkpt>
      <trkpt lat="46.88516" lon="-71.67663">
        <ele>369.76428222656</ele>
        <time>2016-03-23T17:57:15Z</time>
      </trkpt>
      <trkpt lat="46.88517" lon="-71.67665">
        <ele>369.28369140625</ele>
        <time>2016-03-23T17:57:17Z</time>
      </trkpt>
      <trkpt lat="46.88521" lon="-71.67678">
        <ele>369.28369140625</ele>
        <time>2016-03-23T17:57:31Z</time>
      </trkpt>
      <trkpt lat="46.88521" lon="-71.67689">
        <ele>369.28369140625</ele>
        <time>2016-03-23T17:57:40Z</time>
      </trkpt>
      <trkpt lat="46.8852" lon="-71.67697">
        <ele>368.80297851562</ele>
        <time>2016-03-23T17:57:45Z</time>
      </trkpt>
      <trkpt lat="46.88519" lon="-71.67704">
        <ele>369.28369140625</ele>
        <time>2016-03-23T17:57:49Z</time>
      </trkpt>
      <trkpt lat="46.88525" lon="-71.67727">
        <ele>367.36096191406</ele>
        <time>2016-03-23T17:58:04Z</time>
      </trkpt>
      <trkpt lat="46.88526" lon="-71.67732">
        <ele>365.9189453125</ele>
        <time>2016-03-23T17:58:07Z</time>
      </trkpt>
      <trkpt lat="46.88527" lon="-71.67742">
        <ele>364.95764160156</ele>
        <time>2016-03-23T17:58:14Z</time>
      </trkpt>
      <trkpt lat="46.88528" lon="-71.67747">
        <ele>364.95764160156</ele>
        <time>2016-03-23T17:58:17Z</time>
      </trkpt>
      <trkpt lat="46.88533" lon="-71.67766">
        <ele>363.03503417969</ele>
        <time>2016-03-23T17:58:29Z</time>
      </trkpt>
      <trkpt lat="46.88539" lon="-71.67775">
        <ele>362.07373046875</ele>
        <time>2016-03-23T17:58:36Z</time>
      </trkpt>
      <trkpt lat="46.88552" lon="-71.67783">
        <ele>364.95764160156</ele>
        <time>2016-03-23T17:58:51Z</time>
      </trkpt>
      <trkpt lat="46.88564" lon="-71.67794">
        <ele>367.36096191406</ele>
        <time>2016-03-23T17:59:06Z</time>
      </trkpt>
      <trkpt lat="46.88572" lon="-71.67816">
        <ele>367.36096191406</ele>
        <time>2016-03-23T17:59:22Z</time>
      </trkpt>
      <trkpt lat="46.88585" lon="-71.67836">
        <ele>366.88024902344</ele>
        <time>2016-03-23T17:59:40Z</time>
      </trkpt>
      <trkpt lat="46.88586" lon="-71.67839">
        <ele>367.36096191406</ele>
        <time>2016-03-23T17:59:42Z</time>
      </trkpt>
      <trkpt lat="46.88588" lon="-71.67845">
        <ele>367.36096191406</ele>
        <time>2016-03-23T17:59:46Z</time>
      </trkpt>
      <trkpt lat="46.88591" lon="-71.67853">
        <ele>367.36096191406</ele>
        <time>2016-03-23T17:59:51Z</time>
      </trkpt>
      <trkpt lat="46.88596" lon="-71.67862">
        <ele>366.88024902344</ele>
        <time>2016-03-23T17:59:59Z</time>
      </trkpt>
      <trkpt lat="46.88606" lon="-71.67868">
        <ele>367.84155273438</ele>
        <time>2016-03-23T18:00:14Z</time>
      </trkpt>
      <trkpt lat="46.88618" lon="-71.67874">
        <ele>369.76428222656</ele>
        <time>2016-03-23T18:00:28Z</time>
      </trkpt>
      <trkpt lat="46.88619" lon="-71.67876">
        <ele>368.322265625</ele>
        <time>2016-03-23T18:00:37Z</time>
      </trkpt>
      <trkpt lat="46.88617" lon="-71.67878">
        <ele>370.24487304688</ele>
        <time>2016-03-23T18:00:57Z</time>
      </trkpt>
      <trkpt lat="46.88622" lon="-71.6788">
        <ele>370.24487304688</ele>
        <time>2016-03-23T18:01:05Z</time>
      </trkpt>
      <trkpt lat="46.88638" lon="-71.6788">
        <ele>372.16748046875</ele>
        <time>2016-03-23T18:01:20Z</time>
      </trkpt>
      <trkpt lat="46.88653" lon="-71.67873">
        <ele>371.20629882812</ele>
        <time>2016-03-23T18:01:37Z</time>
      </trkpt>
      <trkpt lat="46.88655" lon="-71.67872">
        <ele>370.24487304688</ele>
        <time>2016-03-23T18:01:39Z</time>
      </trkpt>
      <trkpt lat="46.88671" lon="-71.67867">
        <ele>370.24487304688</ele>
        <time>2016-03-23T18:01:53Z</time>
      </trkpt>
      <trkpt lat="46.88683" lon="-71.6787">
        <ele>373.12890625</ele>
        <time>2016-03-23T18:02:07Z</time>
      </trkpt>
      <trkpt lat="46.88689" lon="-71.67871">
        <ele>374.09008789062</ele>
        <time>2016-03-23T18:02:13Z</time>
      </trkpt>
      <trkpt lat="46.88707" lon="-71.67874">
        <ele>374.57080078125</ele>
        <time>2016-03-23T18:02:29Z</time>
      </trkpt>
      <trkpt lat="46.88711" lon="-71.67874">
        <ele>374.57080078125</ele>
        <time>2016-03-23T18:02:32Z</time>
      </trkpt>
      <trkpt lat="46.88721" lon="-71.67874">
        <ele>376.97424316406</ele>
        <time>2016-03-23T18:02:43Z</time>
      </trkpt>
      <trkpt lat="46.88724" lon="-71.67874">
        <ele>376.97424316406</ele>
        <time>2016-03-23T18:02:46Z</time>
      </trkpt>
      <trkpt lat="46.88742" lon="-71.67858">
        <ele>377.93542480469</ele>
        <time>2016-03-23T18:03:03Z</time>
      </trkpt>
      <trkpt lat="46.8876" lon="-71.67858">
        <ele>378.89685058594</ele>
        <time>2016-03-23T18:03:19Z</time>
      </trkpt>
      <trkpt lat="46.88779" lon="-71.67849">
        <ele>376.49353027344</ele>
        <time>2016-03-23T18:03:36Z</time>
      </trkpt>
      <trkpt lat="46.88794" lon="-71.67833">
        <ele>376.01281738281</ele>
        <time>2016-03-23T18:03:53Z</time>
      </trkpt>
      <trkpt lat="46.88804" lon="-71.6782">
        <ele>376.01281738281</ele>
        <time>2016-03-23T18:04:09Z</time>
      </trkpt>
      <trkpt lat="46.88812" lon="-71.67812">
        <ele>378.41613769531</ele>
        <time>2016-03-23T18:04:19Z</time>
      </trkpt>
      <trkpt lat="46.88814" lon="-71.67811">
        <ele>378.89685058594</ele>
        <time>2016-03-23T18:04:21Z</time>
      </trkpt>
      <trkpt lat="46.88818" lon="-71.67809">
        <ele>379.37744140625</ele>
        <time>2016-03-23T18:04:25Z</time>
      </trkpt>
      <trkpt lat="46.88821" lon="-71.67809">
        <ele>379.85803222656</ele>
        <time>2016-03-23T18:04:28Z</time>
      </trkpt>
      <trkpt lat="46.8883" lon="-71.67808">
        <ele>379.85803222656</ele>
        <time>2016-03-23T18:04:37Z</time>
      </trkpt>
      <trkpt lat="46.88844" lon="-71.67799">
        <ele>380.81945800781</ele>
        <time>2016-03-23T18:04:52Z</time>
      </trkpt>
      <trkpt lat="46.88856" lon="-71.67783">
        <ele>382.26135253906</ele>
        <time>2016-03-23T18:05:09Z</time>
      </trkpt>
      <trkpt lat="46.88865" lon="-71.6777">
        <ele>383.22265625</ele>
        <time>2016-03-23T18:05:20Z</time>
      </trkpt>
      <trkpt lat="46.88867" lon="-71.67768">
        <ele>383.70324707031</ele>
        <time>2016-03-23T18:05:22Z</time>
      </trkpt>
      <trkpt lat="46.88874" lon="-71.67745">
        <ele>383.70324707031</ele>
        <time>2016-03-23T18:05:37Z</time>
      </trkpt>
      <trkpt lat="46.88878" lon="-71.67722">
        <ele>383.70324707031</ele>
        <time>2016-03-23T18:05:51Z</time>
      </trkpt>
      <trkpt lat="46.8888" lon="-71.67716">
        <ele>384.18408203125</ele>
        <time>2016-03-23T18:05:55Z</time>
      </trkpt>
      <trkpt lat="46.88884" lon="-71.67696">
        <ele>384.18408203125</ele>
        <time>2016-03-23T18:06:07Z</time>
      </trkpt>
      <trkpt lat="46.88892" lon="-71.67676">
        <ele>383.70324707031</ele>
        <time>2016-03-23T18:06:21Z</time>
      </trkpt>
      <trkpt lat="46.88904" lon="-71.67673">
        <ele>383.70324707031</ele>
        <time>2016-03-23T18:06:31Z</time>
      </trkpt>
      <trkpt lat="46.88919" lon="-71.67669">
        <ele>383.70324707031</ele>
        <time>2016-03-23T18:06:44Z</time>
      </trkpt>
      <trkpt lat="46.8893" lon="-71.67653">
        <ele>383.22265625</ele>
        <time>2016-03-23T18:06:57Z</time>
      </trkpt>
      <trkpt lat="46.88932" lon="-71.67647">
        <ele>383.70324707031</ele>
        <time>2016-03-23T18:07:01Z</time>
      </trkpt>
      <trkpt lat="46.88932" lon="-71.67629">
        <ele>383.22265625</ele>
        <time>2016-03-23T18:07:21Z</time>
      </trkpt>
      <trkpt lat="46.88933" lon="-71.67612">
        <ele>381.78063964844</ele>
        <time>2016-03-23T18:07:33Z</time>
      </trkpt>
      <trkpt lat="46.88925" lon="-71.67591">
        <ele>382.26135253906</ele>
        <time>2016-03-23T18:07:51Z</time>
      </trkpt>
      <trkpt lat="46.88922" lon="-71.67572">
        <ele>380.81945800781</ele>
        <time>2016-03-23T18:08:06Z</time>
      </trkpt>
      <trkpt lat="46.88925" lon="-71.6755">
        <ele>380.81945800781</ele>
        <time>2016-03-23T18:08:19Z</time>
      </trkpt>
      <trkpt lat="46.88925" lon="-71.6754">
        <ele>380.33874511719</ele>
        <time>2016-03-23T18:08:25Z</time>
      </trkpt>
      <trkpt lat="46.88927" lon="-71.6753">
        <ele>379.85803222656</ele>
        <time>2016-03-23T18:08:31Z</time>
      </trkpt>
      <trkpt lat="46.88935" lon="-71.67523">
        <ele>377.93542480469</ele>
        <time>2016-03-23T18:08:39Z</time>
      </trkpt>
      <trkpt lat="46.88939" lon="-71.6752">
        <ele>377.45483398438</ele>
        <time>2016-03-23T18:08:43Z</time>
      </trkpt>
      <trkpt lat="46.88951" lon="-71.67504">
        <ele>377.45483398438</ele>
        <time>2016-03-23T18:08:59Z</time>
      </trkpt>
      <trkpt lat="46.88955" lon="-71.67494">
        <ele>376.49353027344</ele>
        <time>2016-03-23T18:09:15Z</time>
      </trkpt>
      <trkpt lat="46.88961" lon="-71.67461">
        <ele>374.09008789062</ele>
        <time>2016-03-23T18:09:35Z</time>
      </trkpt>
      <trkpt lat="46.88963" lon="-71.67432">
        <ele>373.12890625</ele>
        <time>2016-03-23T18:09:52Z</time>
      </trkpt>
      <trkpt lat="46.88966" lon="-71.67418">
        <ele>372.64819335938</ele>
        <time>2016-03-23T18:10:00Z</time>
      </trkpt>
      <trkpt lat="46.88965" lon="-71.67401">
        <ele>373.60949707031</ele>
        <time>2016-03-23T18:10:17Z</time>
      </trkpt>
      <trkpt lat="46.88962" lon="-71.67395">
        <ele>372.64819335938</ele>
        <time>2016-03-23T18:10:51Z</time>
      </trkpt>
      <trkpt lat="46.88964" lon="-71.6739">
        <ele>372.16748046875</ele>
        <time>2016-03-23T18:10:55Z</time>
      </trkpt>
      <trkpt lat="46.88968" lon="-71.67366">
        <ele>372.16748046875</ele>
        <time>2016-03-23T18:11:12Z</time>
      </trkpt>
      <trkpt lat="46.88969" lon="-71.67354">
        <ele>372.16748046875</ele>
        <time>2016-03-23T18:11:20Z</time>
      </trkpt>
      <trkpt lat="46.88971" lon="-71.67351">
        <ele>372.16748046875</ele>
        <time>2016-03-23T18:11:22Z</time>
      </trkpt>
      <trkpt lat="46.88977" lon="-71.6733">
        <ele>372.16748046875</ele>
        <time>2016-03-23T18:11:38Z</time>
      </trkpt>
      <trkpt lat="46.88977" lon="-71.67325">
        <ele>372.64819335938</ele>
        <time>2016-03-23T18:11:41Z</time>
      </trkpt>
      <trkpt lat="46.88987" lon="-71.67293">
        <ele>372.64819335938</ele>
        <time>2016-03-23T18:11:59Z</time>
      </trkpt>
      <trkpt lat="46.88997" lon="-71.67269">
        <ele>371.20629882812</ele>
        <time>2016-03-23T18:12:15Z</time>
      </trkpt>
      <trkpt lat="46.89006" lon="-71.67248">
        <ele>371.68688964844</ele>
        <time>2016-03-23T18:12:30Z</time>
      </trkpt>
      <trkpt lat="46.89012" lon="-71.6722">
        <ele>371.20629882812</ele>
        <time>2016-03-23T18:12:46Z</time>
      </trkpt>
      <trkpt lat="46.89014" lon="-71.67212">
        <ele>371.20629882812</ele>
        <time>2016-03-23T18:12:52Z</time>
      </trkpt>
      <trkpt lat="46.89026" lon="-71.67185">
        <ele>371.20629882812</ele>
        <time>2016-03-23T18:13:11Z</time>
      </trkpt>
      <trkpt lat="46.89035" lon="-71.67158">
        <ele>370.7255859375</ele>
        <time>2016-03-23T18:13:27Z</time>
      </trkpt>
      <trkpt lat="46.89053" lon="-71.67146">
        <ele>371.68688964844</ele>
        <time>2016-03-23T18:13:44Z</time>
      </trkpt>
      <trkpt lat="46.89057" lon="-71.67145">
        <ele>372.64819335938</ele>
        <time>2016-03-23T18:13:49Z</time>
      </trkpt>
      <trkpt lat="46.89074" lon="-71.67148">
        <ele>371.68688964844</ele>
        <time>2016-03-23T18:14:05Z</time>
      </trkpt>
      <trkpt lat="46.89083" lon="-71.67148">
        <ele>370.7255859375</ele>
        <time>2016-03-23T18:14:19Z</time>
      </trkpt>
      <trkpt lat="46.89097" lon="-71.67153">
        <ele>369.28369140625</ele>
        <time>2016-03-23T18:14:33Z</time>
      </trkpt>
      <trkpt lat="46.89102" lon="-71.67158">
        <ele>368.80297851562</ele>
        <time>2016-03-23T18:14:40Z</time>
      </trkpt>
      <trkpt lat="46.89117" lon="-71.67169">
        <ele>366.88024902344</ele>
        <time>2016-03-23T18:14:54Z</time>
      </trkpt>
      <trkpt lat="46.89131" lon="-71.67179">
        <ele>367.84155273438</ele>
        <time>2016-03-23T18:15:08Z</time>
      </trkpt>
      <trkpt lat="46.89145" lon="-71.67185">
        <ele>364.47692871094</ele>
        <time>2016-03-23T18:15:20Z</time>
      </trkpt>
      <trkpt lat="46.89153" lon="-71.67191">
        <ele>364.95764160156</ele>
        <time>2016-03-23T18:15:29Z</time>
      </trkpt>
      <trkpt lat="46.89161" lon="-71.67195">
        <ele>363.99633789062</ele>
        <time>2016-03-23T18:15:37Z</time>
      </trkpt>
      <trkpt lat="46.89163" lon="-71.67199">
        <ele>363.51574707031</ele>
        <time>2016-03-23T18:15:40Z</time>
      </trkpt>
      <trkpt lat="46.89179" lon="-71.67211">
        <ele>362.07373046875</ele>
        <time>2016-03-23T18:15:57Z</time>
      </trkpt>
      <trkpt lat="46.89192" lon="-71.67219">
        <ele>358.22839355469</ele>
        <time>2016-03-23T18:16:09Z</time>
      </trkpt>
      <trkpt lat="46.89192" lon="-71.6722">
        <ele>358.22839355469</ele>
        <time>2016-03-23T18:16:10Z</time>
      </trkpt>
      <trkpt lat="46.89195" lon="-71.67222">
        <ele>356.30578613281</ele>
        <time>2016-03-23T18:16:33Z</time>
      </trkpt>
      <trkpt lat="46.89196" lon="-71.67221">
        <ele>358.22839355469</ele>
        <time>2016-03-23T18:17:02Z</time>
      </trkpt>
      <trkpt lat="46.892" lon="-71.67222">
        <ele>358.22839355469</ele>
        <time>2016-03-23T18:17:38Z</time>
      </trkpt>
      <trkpt lat="46.89206" lon="-71.67229">
        <ele>356.78637695312</ele>
        <time>2016-03-23T18:18:05Z</time>
      </trkpt>
      <trkpt lat="46.89215" lon="-71.67236">
        <ele>353.421875</ele>
        <time>2016-03-23T18:18:20Z</time>
      </trkpt>
      <trkpt lat="46.8922" lon="-71.67244">
        <ele>351.97985839844</ele>
        <time>2016-03-23T18:18:28Z</time>
      </trkpt>
      <trkpt lat="46.89237" lon="-71.67253">
        <ele>352.46057128906</ele>
        <time>2016-03-23T18:18:43Z</time>
      </trkpt>
      <trkpt lat="46.89251" lon="-71.67263">
        <ele>353.421875</ele>
        <time>2016-03-23T18:18:59Z</time>
      </trkpt>
      <trkpt lat="46.89266" lon="-71.67261">
        <ele>353.421875</ele>
        <time>2016-03-23T18:19:16Z</time>
      </trkpt>
      <trkpt lat="46.89269" lon="-71.6725">
        <ele>351.97985839844</ele>
        <time>2016-03-23T18:19:23Z</time>
      </trkpt>
      <trkpt lat="46.8927" lon="-71.67239">
        <ele>351.01843261719</ele>
        <time>2016-03-23T18:19:40Z</time>
      </trkpt>
      <trkpt lat="46.89277" lon="-71.67227">
        <ele>350.05725097656</ele>
        <time>2016-03-23T18:20:06Z</time>
      </trkpt>
      <trkpt lat="46.89278" lon="-71.67228">
        <ele>351.01843261719</ele>
        <time>2016-03-23T18:20:31Z</time>
      </trkpt>
      <trkpt lat="46.8928" lon="-71.67227">
        <ele>351.01843261719</ele>
        <time>2016-03-23T18:20:49Z</time>
      </trkpt>
      <trkpt lat="46.89282" lon="-71.67227">
        <ele>350.53784179688</ele>
        <time>2016-03-23T18:21:09Z</time>
      </trkpt>
      <trkpt lat="46.89282" lon="-71.67227">
        <ele>351.49914550781</ele>
        <time>2016-03-23T18:21:36Z</time>
      </trkpt>
      <trkpt lat="46.89281" lon="-71.67226">
        <ele>351.01843261719</ele>
        <time>2016-03-23T18:21:51Z</time>
      </trkpt>
      <trkpt lat="46.8928" lon="-71.67227">
        <ele>350.53784179688</ele>
        <time>2016-03-23T18:22:14Z</time>
      </trkpt>
      <trkpt lat="46.8928" lon="-71.67229">
        <ele>351.49914550781</ele>
        <time>2016-03-23T18:23:08Z</time>
      </trkpt>
      <trkpt lat="46.8928" lon="-71.67228">
        <ele>351.97985839844</ele>
        <time>2016-03-23T18:23:23Z</time>
      </trkpt>
      <trkpt lat="46.8928" lon="-71.67227">
        <ele>351.97985839844</ele>
        <time>2016-03-23T18:23:40Z</time>
      </trkpt>
      <trkpt lat="46.89281" lon="-71.67226">
        <ele>351.97985839844</ele>
        <time>2016-03-23T18:24:07Z</time>
      </trkpt>
      <trkpt lat="46.89281" lon="-71.67227">
        <ele>351.97985839844</ele>
        <time>2016-03-23T18:24:22Z</time>
      </trkpt>
      <trkpt lat="46.89283" lon="-71.67223">
        <ele>349.57653808594</ele>
        <time>2016-03-23T18:24:37Z</time>
      </trkpt>
      <trkpt lat="46.89283" lon="-71.67223">
        <ele>351.01843261719</ele>
        <time>2016-03-23T18:24:39Z</time>
      </trkpt>
      <trkpt lat="46.89278" lon="-71.67223">
        <ele>351.49914550781</ele>
        <time>2016-03-23T18:25:32Z</time>
      </trkpt>
      <trkpt lat="46.89277" lon="-71.67222">
        <ele>352.46057128906</ele>
        <time>2016-03-23T18:26:36Z</time>
      </trkpt>
      <trkpt lat="46.89277" lon="-71.67224">
        <ele>351.97985839844</ele>
        <time>2016-03-23T18:27:33Z</time>
      </trkpt>
      <trkpt lat="46.89279" lon="-71.67227">
        <ele>351.49914550781</ele>
        <time>2016-03-23T18:28:12Z</time>
      </trkpt>
      <trkpt lat="46.8928" lon="-71.67226">
        <ele>351.49914550781</ele>
        <time>2016-03-23T18:28:34Z</time>
      </trkpt>
      <trkpt lat="46.89279" lon="-71.67226">
        <ele>351.49914550781</ele>
        <time>2016-03-23T18:28:52Z</time>
      </trkpt>
      <trkpt lat="46.89278" lon="-71.67227">
        <ele>349.57653808594</ele>
        <time>2016-03-23T18:29:13Z</time>
      </trkpt>
      <trkpt lat="46.89278" lon="-71.6723">
        <ele>350.05725097656</ele>
        <time>2016-03-23T18:29:48Z</time>
      </trkpt>
      <trkpt lat="46.89276" lon="-71.67228">
        <ele>349.09582519531</ele>
        <time>2016-03-23T18:30:15Z</time>
      </trkpt>
      <trkpt lat="46.89276" lon="-71.6723">
        <ele>349.09582519531</ele>
        <time>2016-03-23T18:30:39Z</time>
      </trkpt>
      <trkpt lat="46.89275" lon="-71.67224">
        <ele>350.05725097656</ele>
        <time>2016-03-23T18:31:01Z</time>
      </trkpt>
      <trkpt lat="46.89275" lon="-71.67225">
        <ele>350.05725097656</ele>
        <time>2016-03-23T18:31:20Z</time>
      </trkpt>
      <trkpt lat="46.89274" lon="-71.67222">
        <ele>349.57653808594</ele>
        <time>2016-03-23T18:31:34Z</time>
      </trkpt>
      <trkpt lat="46.89274" lon="-71.67219">
        <ele>351.01843261719</ele>
        <time>2016-03-23T18:31:48Z</time>
      </trkpt>
      <trkpt lat="46.89281" lon="-71.67213">
        <ele>351.49914550781</ele>
        <time>2016-03-23T18:32:17Z</time>
      </trkpt>
      <trkpt lat="46.89278" lon="-71.67207">
        <ele>350.05725097656</ele>
        <time>2016-03-23T18:32:37Z</time>
      </trkpt>
      <trkpt lat="46.89283" lon="-71.67198">
        <ele>352.94116210938</ele>
        <time>2016-03-23T18:32:55Z</time>
      </trkpt>
      <trkpt lat="46.8929" lon="-71.67191">
        <ele>354.38317871094</ele>
        <time>2016-03-23T18:33:12Z</time>
      </trkpt>
      <trkpt lat="46.89296" lon="-71.67181">
        <ele>357.26708984375</ele>
        <time>2016-03-23T18:33:27Z</time>
      </trkpt>
      <trkpt lat="46.89303" lon="-71.67165">
        <ele>360.15112304688</ele>
        <time>2016-03-23T18:33:43Z</time>
      </trkpt>
      <trkpt lat="46.89306" lon="-71.67153">
        <ele>363.03503417969</ele>
        <time>2016-03-23T18:33:55Z</time>
      </trkpt>
      <trkpt lat="46.89306" lon="-71.67152">
        <ele>363.51574707031</ele>
        <time>2016-03-23T18:33:56Z</time>
      </trkpt>
      <trkpt lat="46.8931" lon="-71.6714">
        <ele>365.9189453125</ele>
        <time>2016-03-23T18:34:13Z</time>
      </trkpt>
      <trkpt lat="46.89318" lon="-71.67138">
        <ele>369.28369140625</ele>
        <time>2016-03-23T18:34:25Z</time>
      </trkpt>
      <trkpt lat="46.89323" lon="-71.67135">
        <ele>368.80297851562</ele>
        <time>2016-03-23T18:34:42Z</time>
      </trkpt>
      <trkpt lat="46.89323" lon="-71.6713">
        <ele>369.28369140625</ele>
        <time>2016-03-23T18:35:14Z</time>
      </trkpt>
      <trkpt lat="46.89324" lon="-71.67115">
        <ele>369.76428222656</ele>
        <time>2016-03-23T18:35:27Z</time>
      </trkpt>
      <trkpt lat="46.89319" lon="-71.67098">
        <ele>368.80297851562</ele>
        <time>2016-03-23T18:35:44Z</time>
      </trkpt>
      <trkpt lat="46.89315" lon="-71.67083">
        <ele>367.84155273438</ele>
        <time>2016-03-23T18:35:57Z</time>
      </trkpt>
      <trkpt lat="46.8931" lon="-71.67066">
        <ele>365.9189453125</ele>
        <time>2016-03-23T18:36:12Z</time>
      </trkpt>
      <trkpt lat="46.89309" lon="-71.67062">
        <ele>365.43835449219</ele>
        <time>2016-03-23T18:36:15Z</time>
      </trkpt>
      <trkpt lat="46.89307" lon="-71.67047">
        <ele>363.51574707031</ele>
        <time>2016-03-23T18:36:28Z</time>
      </trkpt>
      <trkpt lat="46.89306" lon="-71.67017">
        <ele>363.03503417969</ele>
        <time>2016-03-23T18:36:44Z</time>
      </trkpt>
      <trkpt lat="46.89316" lon="-71.66995">
        <ele>362.55432128906</ele>
        <time>2016-03-23T18:37:00Z</time>
      </trkpt>
      <trkpt lat="46.89324" lon="-71.66984">
        <ele>362.55432128906</ele>
        <time>2016-03-23T18:37:10Z</time>
      </trkpt>
      <trkpt lat="46.89329" lon="-71.66962">
        <ele>362.07373046875</ele>
        <time>2016-03-23T18:37:26Z</time>
      </trkpt>
      <trkpt lat="46.89331" lon="-71.66953">
        <ele>362.07373046875</ele>
        <time>2016-03-23T18:37:32Z</time>
      </trkpt>
      <trkpt lat="46.89329" lon="-71.66935">
        <ele>361.11242675781</ele>
        <time>2016-03-23T18:37:45Z</time>
      </trkpt>
      <trkpt lat="46.89322" lon="-71.66913">
        <ele>359.67041015625</ele>
        <time>2016-03-23T18:37:59Z</time>
      </trkpt>
      <trkpt lat="46.89323" lon="-71.66902">
        <ele>357.26708984375</ele>
        <time>2016-03-23T18:38:06Z</time>
      </trkpt>
      <trkpt lat="46.89319" lon="-71.66895">
        <ele>356.78637695312</ele>
        <time>2016-03-23T18:38:10Z</time>
      </trkpt>
      <trkpt lat="46.89317" lon="-71.66886">
        <ele>356.30578613281</ele>
        <time>2016-03-23T18:38:16Z</time>
      </trkpt>
      <trkpt lat="46.8931" lon="-71.6686">
        <ele>354.38317871094</ele>
        <time>2016-03-23T18:38:30Z</time>
      </trkpt>
      <trkpt lat="46.89314" lon="-71.66841">
        <ele>354.86376953125</ele>
        <time>2016-03-23T18:38:43Z</time>
      </trkpt>
      <trkpt lat="46.89313" lon="-71.66837">
        <ele>354.86376953125</ele>
        <time>2016-03-23T18:38:45Z</time>
      </trkpt>
      <trkpt lat="46.89315" lon="-71.6682">
        <ele>352.94116210938</ele>
        <time>2016-03-23T18:38:56Z</time>
      </trkpt>
      <trkpt lat="46.89315" lon="-71.66812">
        <ele>351.97985839844</ele>
        <time>2016-03-23T18:39:01Z</time>
      </trkpt>
      <trkpt lat="46.89317" lon="-71.6681">
        <ele>351.97985839844</ele>
        <time>2016-03-23T18:39:03Z</time>
      </trkpt>
      <trkpt lat="46.89318" lon="-71.66793">
        <ele>348.615234375</ele>
        <time>2016-03-23T18:39:15Z</time>
      </trkpt>
      <trkpt lat="46.89309" lon="-71.66784">
        <ele>348.615234375</ele>
        <time>2016-03-23T18:39:26Z</time>
      </trkpt>
      <trkpt lat="46.89299" lon="-71.66789">
        <ele>345.73132324219</ele>
        <time>2016-03-23T18:39:37Z</time>
      </trkpt>
      <trkpt lat="46.89295" lon="-71.6679">
        <ele>344.77001953125</ele>
        <time>2016-03-23T18:39:40Z</time>
      </trkpt>
      <trkpt lat="46.89289" lon="-71.66792">
        <ele>344.77001953125</ele>
        <time>2016-03-23T18:39:46Z</time>
      </trkpt>
      <trkpt lat="46.89271" lon="-71.66793">
        <ele>342.84729003906</ele>
        <time>2016-03-23T18:40:03Z</time>
      </trkpt>
      <trkpt lat="46.8927" lon="-71.66782">
        <ele>340.92468261719</ele>
        <time>2016-03-23T18:40:15Z</time>
      </trkpt>
      <trkpt lat="46.8927" lon="-71.66773">
        <ele>339.48266601562</ele>
        <time>2016-03-23T18:40:24Z</time>
      </trkpt>
      <trkpt lat="46.89272" lon="-71.66763">
        <ele>338.521484375</ele>
        <time>2016-03-23T18:40:30Z</time>
      </trkpt>
      <trkpt lat="46.89269" lon="-71.66751">
        <ele>337.07946777344</ele>
        <time>2016-03-23T18:40:44Z</time>
      </trkpt>
      <trkpt lat="46.8926" lon="-71.66748">
        <ele>335.15673828125</ele>
        <time>2016-03-23T18:41:18Z</time>
      </trkpt>
      <trkpt lat="46.89259" lon="-71.66749">
        <ele>334.67614746094</ele>
        <time>2016-03-23T18:41:19Z</time>
      </trkpt>
      <trkpt lat="46.89242" lon="-71.66754">
        <ele>333.23413085938</ele>
        <time>2016-03-23T18:41:37Z</time>
      </trkpt>
      <trkpt lat="46.89237" lon="-71.66752">
        <ele>331.3115234375</ele>
        <time>2016-03-23T18:41:44Z</time>
      </trkpt>
      <trkpt lat="46.89224" lon="-71.66733">
        <ele>330.35021972656</ele>
        <time>2016-03-23T18:42:00Z</time>
      </trkpt>
      <trkpt lat="46.89217" lon="-71.6672">
        <ele>328.42761230469</ele>
        <time>2016-03-23T18:42:13Z</time>
      </trkpt>
      <trkpt lat="46.89208" lon="-71.6673">
        <ele>324.58227539062</ele>
        <time>2016-03-23T18:42:30Z</time>
      </trkpt>
      <trkpt lat="46.89207" lon="-71.6673">
        <ele>324.58227539062</ele>
        <time>2016-03-23T18:42:31Z</time>
      </trkpt>
      <trkpt lat="46.89206" lon="-71.66733">
        <ele>323.62097167969</ele>
        <time>2016-03-23T18:42:34Z</time>
      </trkpt>
      <trkpt lat="46.89198" lon="-71.6675">
        <ele>321.2177734375</ele>
        <time>2016-03-23T18:42:50Z</time>
      </trkpt>
      <trkpt lat="46.89192" lon="-71.66758">
        <ele>318.81433105469</ele>
        <time>2016-03-23T18:43:00Z</time>
      </trkpt>
      <trkpt lat="46.89187" lon="-71.66745">
        <ele>316.41101074219</ele>
        <time>2016-03-23T18:43:13Z</time>
      </trkpt>
      <trkpt lat="46.89185" lon="-71.66741">
        <ele>314.96911621094</ele>
        <time>2016-03-23T18:43:17Z</time>
      </trkpt>
      <trkpt lat="46.89179" lon="-71.66734">
        <ele>314.48840332031</ele>
        <time>2016-03-23T18:43:22Z</time>
      </trkpt>
      <trkpt lat="46.89169" lon="-71.66714">
        <ele>311.6044921875</ele>
        <time>2016-03-23T18:43:37Z</time>
      </trkpt>
      <trkpt lat="46.89167" lon="-71.66701">
        <ele>309.201171875</ele>
        <time>2016-03-23T18:43:47Z</time>
      </trkpt>
      <trkpt lat="46.89165" lon="-71.66694">
        <ele>308.72045898438</ele>
        <time>2016-03-23T18:43:53Z</time>
      </trkpt>
      <trkpt lat="46.89163" lon="-71.6668">
        <ele>305.83666992188</ele>
        <time>2016-03-23T18:44:04Z</time>
      </trkpt>
      <trkpt lat="46.89154" lon="-71.66668">
        <ele>302.95251464844</ele>
        <time>2016-03-23T18:44:18Z</time>
      </trkpt>
      <trkpt lat="46.89153" lon="-71.66665">
        <ele>301.99133300781</ele>
        <time>2016-03-23T18:44:22Z</time>
      </trkpt>
      <trkpt lat="46.89152" lon="-71.66665">
        <ele>301.99133300781</ele>
        <time>2016-03-23T18:44:23Z</time>
      </trkpt>
      <trkpt lat="46.89147" lon="-71.66658">
        <ele>299.58801269531</ele>
        <time>2016-03-23T18:44:36Z</time>
      </trkpt>
      <trkpt lat="46.89143" lon="-71.66647">
        <ele>296.22351074219</ele>
        <time>2016-03-23T18:44:46Z</time>
      </trkpt>
      <trkpt lat="46.89143" lon="-71.66646">
        <ele>296.22351074219</ele>
        <time>2016-03-23T18:44:47Z</time>
      </trkpt>
      <trkpt lat="46.89143" lon="-71.66637">
        <ele>294.30078125</ele>
        <time>2016-03-23T18:44:54Z</time>
      </trkpt>
      <trkpt lat="46.89142" lon="-71.6663">
        <ele>293.82006835938</ele>
        <time>2016-03-23T18:45:00Z</time>
      </trkpt>
      <trkpt lat="46.89145" lon="-71.66613">
        <ele>293.82006835938</ele>
        <time>2016-03-23T18:45:15Z</time>
      </trkpt>
      <trkpt lat="46.89148" lon="-71.66595">
        <ele>292.85876464844</ele>
        <time>2016-03-23T18:45:28Z</time>
      </trkpt>
      <trkpt lat="46.89146" lon="-71.66573">
        <ele>291.8974609375</ele>
        <time>2016-03-23T18:45:42Z</time>
      </trkpt>
      <trkpt lat="46.89144" lon="-71.66566">
        <ele>291.8974609375</ele>
        <time>2016-03-23T18:46:01Z</time>
      </trkpt>
      <trkpt lat="46.89143" lon="-71.66557">
        <ele>290.45556640625</ele>
        <time>2016-03-23T18:46:15Z</time>
      </trkpt>
      <trkpt lat="46.8915" lon="-71.66536">
        <ele>290.45556640625</ele>
        <time>2016-03-23T18:46:30Z</time>
      </trkpt>
      <trkpt lat="46.89157" lon="-71.66517">
        <ele>292.37817382812</ele>
        <time>2016-03-23T18:46:46Z</time>
      </trkpt>
      <trkpt lat="46.89164" lon="-71.66503">
        <ele>292.37817382812</ele>
        <time>2016-03-23T18:47:00Z</time>
      </trkpt>
      <trkpt lat="46.89168" lon="-71.66491">
        <ele>292.85876464844</ele>
        <time>2016-03-23T18:47:16Z</time>
      </trkpt>
      <trkpt lat="46.8917" lon="-71.66472">
        <ele>290.93615722656</ele>
        <time>2016-03-23T18:47:32Z</time>
      </trkpt>
      <trkpt lat="46.89171" lon="-71.66456">
        <ele>290.93615722656</ele>
        <time>2016-03-23T18:47:44Z</time>
      </trkpt>
      <trkpt lat="46.89174" lon="-71.6644">
        <ele>290.93615722656</ele>
        <time>2016-03-23T18:47:57Z</time>
      </trkpt>
      <trkpt lat="46.89178" lon="-71.66422">
        <ele>291.41674804688</ele>
        <time>2016-03-23T18:48:11Z</time>
      </trkpt>
      <trkpt lat="46.89179" lon="-71.66414">
        <ele>291.41674804688</ele>
        <time>2016-03-23T18:48:17Z</time>
      </trkpt>
      <trkpt lat="46.89187" lon="-71.66396">
        <ele>291.8974609375</ele>
        <time>2016-03-23T18:48:30Z</time>
      </trkpt>
      <trkpt lat="46.89193" lon="-71.66377">
        <ele>294.30078125</ele>
        <time>2016-03-23T18:48:46Z</time>
      </trkpt>
      <trkpt lat="46.8919" lon="-71.66366">
        <ele>293.82006835938</ele>
        <time>2016-03-23T18:49:02Z</time>
      </trkpt>
      <trkpt lat="46.89188" lon="-71.66364">
        <ele>292.85876464844</ele>
        <time>2016-03-23T18:49:22Z</time>
      </trkpt>
      <trkpt lat="46.89185" lon="-71.66355">
        <ele>292.85876464844</ele>
        <time>2016-03-23T18:49:28Z</time>
      </trkpt>
      <trkpt lat="46.89182" lon="-71.66347">
        <ele>292.85876464844</ele>
        <time>2016-03-23T18:49:33Z</time>
      </trkpt>
      <trkpt lat="46.8918" lon="-71.66337">
        <ele>293.33935546875</ele>
        <time>2016-03-23T18:49:40Z</time>
      </trkpt>
      <trkpt lat="46.8917" lon="-71.66322">
        <ele>292.85876464844</ele>
        <time>2016-03-23T18:49:55Z</time>
      </trkpt>
      <trkpt lat="46.8916" lon="-71.66312">
        <ele>289.494140625</ele>
        <time>2016-03-23T18:50:05Z</time>
      </trkpt>
      <trkpt lat="46.89157" lon="-71.66302">
        <ele>289.494140625</ele>
        <time>2016-03-23T18:50:13Z</time>
      </trkpt>
      <trkpt lat="46.89155" lon="-71.66297">
        <ele>289.01354980469</ele>
        <time>2016-03-23T18:50:17Z</time>
      </trkpt>
      <trkpt lat="46.89154" lon="-71.66288">
        <ele>289.01354980469</ele>
        <time>2016-03-23T18:50:23Z</time>
      </trkpt>
      <trkpt lat="46.89151" lon="-71.66281">
        <ele>289.494140625</ele>
        <time>2016-03-23T18:50:27Z</time>
      </trkpt>
      <trkpt lat="46.89142" lon="-71.66268">
        <ele>288.05224609375</ele>
        <time>2016-03-23T18:50:37Z</time>
      </trkpt>
      <trkpt lat="46.89134" lon="-71.66246">
        <ele>289.01354980469</ele>
        <time>2016-03-23T18:50:54Z</time>
      </trkpt>
      <trkpt lat="46.89124" lon="-71.66231">
        <ele>286.61022949219</ele>
        <time>2016-03-23T18:51:10Z</time>
      </trkpt>
      <trkpt lat="46.89123" lon="-71.66228">
        <ele>288.05224609375</ele>
        <time>2016-03-23T18:51:13Z</time>
      </trkpt>
      <trkpt lat="46.89118" lon="-71.66214">
        <ele>288.53295898438</ele>
        <time>2016-03-23T18:51:24Z</time>
      </trkpt>
      <trkpt lat="46.8912" lon="-71.66206">
        <ele>289.494140625</ele>
        <time>2016-03-23T18:51:29Z</time>
      </trkpt>
      <trkpt lat="46.89116" lon="-71.66191">
        <ele>291.41674804688</ele>
        <time>2016-03-23T18:51:46Z</time>
      </trkpt>
      <trkpt lat="46.89115" lon="-71.66187">
        <ele>291.41674804688</ele>
        <time>2016-03-23T18:51:50Z</time>
      </trkpt>
      <trkpt lat="46.89109" lon="-71.66181">
        <ele>291.41674804688</ele>
        <time>2016-03-23T18:51:58Z</time>
      </trkpt>
      <trkpt lat="46.89102" lon="-71.66175">
        <ele>289.97485351562</ele>
        <time>2016-03-23T18:52:09Z</time>
      </trkpt>
      <trkpt lat="46.89093" lon="-71.66173">
        <ele>287.0908203125</ele>
        <time>2016-03-23T18:52:19Z</time>
      </trkpt>
      <trkpt lat="46.89091" lon="-71.66175">
        <ele>286.61022949219</ele>
        <time>2016-03-23T18:52:21Z</time>
      </trkpt>
      <trkpt lat="46.89088" lon="-71.66175">
        <ele>285.64880371094</ele>
        <time>2016-03-23T18:52:24Z</time>
      </trkpt>
      <trkpt lat="46.89081" lon="-71.66157">
        <ele>284.68762207031</ele>
        <time>2016-03-23T18:52:36Z</time>
      </trkpt>
      <trkpt lat="46.8908" lon="-71.66154">
        <ele>284.20690917969</ele>
        <time>2016-03-23T18:52:38Z</time>
      </trkpt>
      <trkpt lat="46.89071" lon="-71.66137">
        <ele>281.80358886719</ele>
        <time>2016-03-23T18:52:52Z</time>
      </trkpt>
      <trkpt lat="46.8907" lon="-71.66135">
        <ele>281.32299804688</ele>
        <time>2016-03-23T18:52:54Z</time>
      </trkpt>
      <trkpt lat="46.89065" lon="-71.66126">
        <ele>279.880859375</ele>
        <time>2016-03-23T18:53:01Z</time>
      </trkpt>
      <trkpt lat="46.89055" lon="-71.66116">
        <ele>277.47766113281</ele>
        <time>2016-03-23T18:53:12Z</time>
      </trkpt>
      <trkpt lat="46.89045" lon="-71.66093">
        <ele>276.9970703125</ele>
        <time>2016-03-23T18:53:28Z</time>
      </trkpt>
      <trkpt lat="46.89043" lon="-71.66088">
        <ele>276.03564453125</ele>
        <time>2016-03-23T18:53:33Z</time>
      </trkpt>
      <trkpt lat="46.89038" lon="-71.66086">
        <ele>276.03564453125</ele>
        <time>2016-03-23T18:53:37Z</time>
      </trkpt>
      <trkpt lat="46.89032" lon="-71.66086">
        <ele>275.55505371094</ele>
        <time>2016-03-23T18:53:42Z</time>
      </trkpt>
      <trkpt lat="46.89027" lon="-71.66086">
        <ele>273.63244628906</ele>
        <time>2016-03-23T18:53:47Z</time>
      </trkpt>
      <trkpt lat="46.89012" lon="-71.66069">
        <ele>271.70971679688</ele>
        <time>2016-03-23T18:54:04Z</time>
      </trkpt>
      <trkpt lat="46.89008" lon="-71.66056">
        <ele>270.74841308594</ele>
        <time>2016-03-23T18:54:12Z</time>
      </trkpt>
      <trkpt lat="46.89008" lon="-71.6605">
        <ele>270.26770019531</ele>
        <time>2016-03-23T18:54:16Z</time>
      </trkpt>
      <trkpt lat="46.88999" lon="-71.66027">
        <ele>268.82580566406</ele>
        <time>2016-03-23T18:54:32Z</time>
      </trkpt>
      <trkpt lat="46.88994" lon="-71.66015">
        <ele>268.34509277344</ele>
        <time>2016-03-23T18:54:40Z</time>
      </trkpt>
      <trkpt lat="46.88983" lon="-71.65999">
        <ele>265.94189453125</ele>
        <time>2016-03-23T18:54:58Z</time>
      </trkpt>
      <trkpt lat="46.88978" lon="-71.65994">
        <ele>265.46130371094</ele>
        <time>2016-03-23T18:55:12Z</time>
      </trkpt>
      <trkpt lat="46.88974" lon="-71.65988">
        <ele>265.46130371094</ele>
        <time>2016-03-23T18:55:28Z</time>
      </trkpt>
      <trkpt lat="46.88969" lon="-71.65979">
        <ele>264.98059082031</ele>
        <time>2016-03-23T18:55:48Z</time>
      </trkpt>
      <trkpt lat="46.88961" lon="-71.65961">
        <ele>264.01928710938</ele>
        <time>2016-03-23T18:56:04Z</time>
      </trkpt>
      <trkpt lat="46.88958" lon="-71.65937">
        <ele>263.05786132812</ele>
        <time>2016-03-23T18:56:19Z</time>
      </trkpt>
      <trkpt lat="46.88961" lon="-71.65916">
        <ele>263.05786132812</ele>
        <time>2016-03-23T18:56:32Z</time>
      </trkpt>
      <trkpt lat="46.88961" lon="-71.65907">
        <ele>263.05786132812</ele>
        <time>2016-03-23T18:56:38Z</time>
      </trkpt>
      <trkpt lat="46.88959" lon="-71.65887">
        <ele>264.01928710938</ele>
        <time>2016-03-23T18:56:54Z</time>
      </trkpt>
      <trkpt lat="46.88958" lon="-71.65875">
        <ele>264.49987792969</ele>
        <time>2016-03-23T18:57:06Z</time>
      </trkpt>
      <trkpt lat="46.8895" lon="-71.65857">
        <ele>264.49987792969</ele>
        <time>2016-03-23T18:57:21Z</time>
      </trkpt>
      <trkpt lat="46.88947" lon="-71.65838">
        <ele>264.49987792969</ele>
        <time>2016-03-23T18:57:34Z</time>
      </trkpt>
      <trkpt lat="46.88945" lon="-71.65828">
        <ele>265.94189453125</ele>
        <time>2016-03-23T18:57:40Z</time>
      </trkpt>
      <trkpt lat="46.88935" lon="-71.65812">
        <ele>263.53857421875</ele>
        <time>2016-03-23T18:57:56Z</time>
      </trkpt>
      <trkpt lat="46.88934" lon="-71.65807">
        <ele>262.5771484375</ele>
        <time>2016-03-23T18:57:59Z</time>
      </trkpt>
      <trkpt lat="46.8893" lon="-71.65786">
        <ele>264.01928710938</ele>
        <time>2016-03-23T18:58:13Z</time>
      </trkpt>
      <trkpt lat="46.88921" lon="-71.65775">
        <ele>260.65454101562</ele>
        <time>2016-03-23T18:58:27Z</time>
      </trkpt>
      <trkpt lat="46.88915" lon="-71.65755">
        <ele>259.693359375</ele>
        <time>2016-03-23T18:58:43Z</time>
      </trkpt>
      <trkpt lat="46.88914" lon="-71.65752">
        <ele>259.693359375</ele>
        <time>2016-03-23T18:58:45Z</time>
      </trkpt>
      <trkpt lat="46.88907" lon="-71.65738">
        <ele>257.77075195312</ele>
        <time>2016-03-23T18:59:01Z</time>
      </trkpt>
      <trkpt lat="46.88906" lon="-71.65738">
        <ele>257.2900390625</ele>
        <time>2016-03-23T18:59:02Z</time>
      </trkpt>
      <trkpt lat="46.88902" lon="-71.65736">
        <ele>255.84802246094</ele>
        <time>2016-03-23T18:59:07Z</time>
      </trkpt>
      <trkpt lat="46.88889" lon="-71.65722">
        <ele>252.96398925781</ele>
        <time>2016-03-23T18:59:22Z</time>
      </trkpt>
      <trkpt lat="46.88884" lon="-71.65718">
        <ele>251.04138183594</ele>
        <time>2016-03-23T18:59:31Z</time>
      </trkpt>
      <trkpt lat="46.88877" lon="-71.65713">
        <ele>250.08020019531</ele>
        <time>2016-03-23T18:59:40Z</time>
      </trkpt>
      <trkpt lat="46.88861" lon="-71.65696">
        <ele>248.15759277344</ele>
        <time>2016-03-23T18:59:59Z</time>
      </trkpt>
      <trkpt lat="46.88853" lon="-71.65683">
        <ele>245.75415039062</ele>
        <time>2016-03-23T19:00:10Z</time>
      </trkpt>
      <trkpt lat="46.88846" lon="-71.65673">
        <ele>244.79284667969</ele>
        <time>2016-03-23T19:00:19Z</time>
      </trkpt>
      <trkpt lat="46.88841" lon="-71.65672">
        <ele>244.31225585938</ele>
        <time>2016-03-23T19:00:24Z</time>
      </trkpt>
      <trkpt lat="46.8883" lon="-71.65661">
        <ele>241.42822265625</ele>
        <time>2016-03-23T19:00:38Z</time>
      </trkpt>
      <trkpt lat="46.88817" lon="-71.65656">
        <ele>240.94763183594</ele>
        <time>2016-03-23T19:00:49Z</time>
      </trkpt>
      <trkpt lat="46.8881" lon="-71.65653">
        <ele>240.46704101562</ele>
        <time>2016-03-23T19:00:55Z</time>
      </trkpt>
      <trkpt lat="46.88795" lon="-71.65644">
        <ele>238.06359863281</ele>
        <time>2016-03-23T19:01:10Z</time>
      </trkpt>
      <trkpt lat="46.88794" lon="-71.65642">
        <ele>237.10229492188</ele>
        <time>2016-03-23T19:01:12Z</time>
      </trkpt>
      <trkpt lat="46.88787" lon="-71.65626">
        <ele>236.62170410156</ele>
        <time>2016-03-23T19:01:29Z</time>
      </trkpt>
      <trkpt lat="46.88777" lon="-71.65617">
        <ele>236.14099121094</ele>
        <time>2016-03-23T19:01:45Z</time>
      </trkpt>
      <trkpt lat="46.88773" lon="-71.65614">
        <ele>236.62170410156</ele>
        <time>2016-03-23T19:01:55Z</time>
      </trkpt>
      <trkpt lat="46.88758" lon="-71.65601">
        <ele>234.69909667969</ele>
        <time>2016-03-23T19:02:11Z</time>
      </trkpt>
      <trkpt lat="46.88755" lon="-71.65596">
        <ele>233.73767089844</ele>
        <time>2016-03-23T19:02:16Z</time>
      </trkpt>
      <trkpt lat="46.88746" lon="-71.65575">
        <ele>231.81494140625</ele>
        <time>2016-03-23T19:02:31Z</time>
      </trkpt>
      <trkpt lat="46.88746" lon="-71.65572">
        <ele>231.33435058594</ele>
        <time>2016-03-23T19:02:33Z</time>
      </trkpt>
      <trkpt lat="46.88738" lon="-71.65553">
        <ele>229.89233398438</ele>
        <time>2016-03-23T19:02:48Z</time>
      </trkpt>
      <trkpt lat="46.88726" lon="-71.65538">
        <ele>228.45043945312</ele>
        <time>2016-03-23T19:03:02Z</time>
      </trkpt>
      <trkpt lat="46.88713" lon="-71.65526">
        <ele>226.52783203125</ele>
        <time>2016-03-23T19:03:15Z</time>
      </trkpt>
      <trkpt lat="46.88711" lon="-71.65516">
        <ele>226.52783203125</ele>
        <time>2016-03-23T19:03:21Z</time>
      </trkpt>
      <trkpt lat="46.88707" lon="-71.65502">
        <ele>225.56652832031</ele>
        <time>2016-03-23T19:03:31Z</time>
      </trkpt>
      <trkpt lat="46.88706" lon="-71.65499">
        <ele>225.56652832031</ele>
        <time>2016-03-23T19:03:33Z</time>
      </trkpt>
      <trkpt lat="46.88705" lon="-71.65486">
        <ele>224.60522460938</ele>
        <time>2016-03-23T19:03:40Z</time>
      </trkpt>
      <trkpt lat="46.887" lon="-71.65478">
        <ele>224.12451171875</ele>
        <time>2016-03-23T19:03:46Z</time>
      </trkpt>
      <trkpt lat="46.8869" lon="-71.65469">
        <ele>223.16320800781</ele>
        <time>2016-03-23T19:03:58Z</time>
      </trkpt>
      <trkpt lat="46.88689" lon="-71.65465">
        <ele>221.72119140625</ele>
        <time>2016-03-23T19:04:01Z</time>
      </trkpt>
      <trkpt lat="46.88685" lon="-71.6546">
        <ele>220.27917480469</ele>
        <time>2016-03-23T19:04:07Z</time>
      </trkpt>
      <trkpt lat="46.88672" lon="-71.65447">
        <ele>220.27917480469</ele>
        <time>2016-03-23T19:04:23Z</time>
      </trkpt>
      <trkpt lat="46.88661" lon="-71.65445">
        <ele>219.31799316406</ele>
        <time>2016-03-23T19:04:32Z</time>
      </trkpt>
      <trkpt lat="46.88657" lon="-71.65444">
        <ele>219.31799316406</ele>
        <time>2016-03-23T19:04:36Z</time>
      </trkpt>
      <trkpt lat="46.8865" lon="-71.65431">
        <ele>218.35656738281</ele>
        <time>2016-03-23T19:04:46Z</time>
      </trkpt>
      <trkpt lat="46.88636" lon="-71.65432">
        <ele>215.47265625</ele>
        <time>2016-03-23T19:04:59Z</time>
      </trkpt>
      <trkpt lat="46.88631" lon="-71.6543">
        <ele>214.99194335938</ele>
        <time>2016-03-23T19:05:03Z</time>
      </trkpt>
      <trkpt lat="46.88622" lon="-71.65426">
        <ele>214.03063964844</ele>
        <time>2016-03-23T19:05:11Z</time>
      </trkpt>
      <trkpt lat="46.88619" lon="-71.6542">
        <ele>213.0693359375</ele>
        <time>2016-03-23T19:05:15Z</time>
      </trkpt>
      <trkpt lat="46.88618" lon="-71.65412">
        <ele>212.58862304688</ele>
        <time>2016-03-23T19:05:20Z</time>
      </trkpt>
      <trkpt lat="46.88609" lon="-71.65404">
        <ele>212.10803222656</ele>
        <time>2016-03-23T19:05:31Z</time>
      </trkpt>
      <trkpt lat="46.88602" lon="-71.65406">
        <ele>212.10803222656</ele>
        <time>2016-03-23T19:05:37Z</time>
      </trkpt>
      <trkpt lat="46.8859" lon="-71.65404">
        <ele>210.666015625</ele>
        <time>2016-03-23T19:05:47Z</time>
      </trkpt>
      <trkpt lat="46.88584" lon="-71.65404">
        <ele>209.70483398438</ele>
        <time>2016-03-23T19:05:52Z</time>
      </trkpt>
      <trkpt lat="46.88578" lon="-71.65405">
        <ele>209.22412109375</ele>
        <time>2016-03-23T19:05:57Z</time>
      </trkpt>
      <trkpt lat="46.88565" lon="-71.65407">
        <ele>207.78210449219</ele>
        <time>2016-03-23T19:06:09Z</time>
      </trkpt>
      <trkpt lat="46.88551" lon="-71.65399">
        <ele>207.30139160156</ele>
        <time>2016-03-23T19:06:23Z</time>
      </trkpt>
      <trkpt lat="46.88538" lon="-71.65401">
        <ele>204.89807128906</ele>
        <time>2016-03-23T19:06:36Z</time>
      </trkpt>
      <trkpt lat="46.88536" lon="-71.65403">
        <ele>204.41748046875</ele>
        <time>2016-03-23T19:06:38Z</time>
      </trkpt>
      <trkpt lat="46.88527" lon="-71.65406">
        <ele>202.49487304688</ele>
        <time>2016-03-23T19:06:47Z</time>
      </trkpt>
      <trkpt lat="46.88519" lon="-71.65402">
        <ele>202.01428222656</ele>
        <time>2016-03-23T19:06:56Z</time>
      </trkpt>
      <trkpt lat="46.88517" lon="-71.65396">
        <ele>202.01428222656</ele>
        <time>2016-03-23T19:07:00Z</time>
      </trkpt>
      <trkpt lat="46.88516" lon="-71.6539">
        <ele>202.01428222656</ele>
        <time>2016-03-23T19:07:04Z</time>
      </trkpt>
      <trkpt lat="46.88506" lon="-71.65377">
        <ele>202.01428222656</ele>
        <time>2016-03-23T19:07:17Z</time>
      </trkpt>
      <trkpt lat="46.88492" lon="-71.65368">
        <ele>201.53356933594</ele>
        <time>2016-03-23T19:07:30Z</time>
      </trkpt>
      <trkpt lat="46.88487" lon="-71.65362">
        <ele>200.572265625</ele>
        <time>2016-03-23T19:07:37Z</time>
      </trkpt>
      <trkpt lat="46.88476" lon="-71.65344">
        <ele>197.68823242188</ele>
        <time>2016-03-23T19:07:53Z</time>
      </trkpt>
      <trkpt lat="46.88467" lon="-71.65333">
        <ele>196.72692871094</ele>
        <time>2016-03-23T19:08:05Z</time>
      </trkpt>
      <trkpt lat="46.88459" lon="-71.6532">
        <ele>195.765625</ele>
        <time>2016-03-23T19:08:18Z</time>
      </trkpt>
      <trkpt lat="46.88459" lon="-71.65321">
        <ele>194.32373046875</ele>
        <time>2016-03-23T19:08:26Z</time>
      </trkpt>
      <trkpt lat="46.88454" lon="-71.65329">
        <ele>194.32373046875</ele>
        <time>2016-03-23T19:08:32Z</time>
      </trkpt>
      <trkpt lat="46.88443" lon="-71.65337">
        <ele>195.765625</ele>
        <time>2016-03-23T19:08:41Z</time>
      </trkpt>
      <trkpt lat="46.88421" lon="-71.65344">
        <ele>196.24633789062</ele>
        <time>2016-03-23T19:08:58Z</time>
      </trkpt>
      <trkpt lat="46.88401" lon="-71.65334">
        <ele>196.72692871094</ele>
        <time>2016-03-23T19:09:15Z</time>
      </trkpt>
      <trkpt lat="46.88393" lon="-71.65316">
        <ele>196.24633789062</ele>
        <time>2016-03-23T19:09:33Z</time>
      </trkpt>
      <trkpt lat="46.88392" lon="-71.65316">
        <ele>195.28491210938</ele>
        <time>2016-03-23T19:09:50Z</time>
      </trkpt>
      <trkpt lat="46.88388" lon="-71.65312">
        <ele>196.24633789062</ele>
        <time>2016-03-23T19:10:12Z</time>
      </trkpt>
      <trkpt lat="46.88388" lon="-71.65312">
        <ele>196.24633789062</ele>
        <time>2016-03-23T19:10:31Z</time>
      </trkpt>
      <trkpt lat="46.88389" lon="-71.65315">
        <ele>196.24633789062</ele>
        <time>2016-03-23T19:10:52Z</time>
      </trkpt>
      <trkpt lat="46.88392" lon="-71.65314">
        <ele>196.72692871094</ele>
        <time>2016-03-23T19:10:57Z</time>
      </trkpt>
      <trkpt lat="46.88397" lon="-71.65312">
        <ele>196.72692871094</ele>
        <time>2016-03-23T19:11:12Z</time>
      </trkpt>
      <trkpt lat="46.88398" lon="-71.65309">
        <ele>197.20751953125</ele>
        <time>2016-03-23T19:11:35Z</time>
      </trkpt>
      <trkpt lat="46.88399" lon="-71.65312">
        <ele>195.765625</ele>
        <time>2016-03-23T19:11:55Z</time>
      </trkpt>
      <trkpt lat="46.88405" lon="-71.65315">
        <ele>198.1689453125</ele>
        <time>2016-03-23T19:12:14Z</time>
      </trkpt>
      <trkpt lat="46.88401" lon="-71.65317">
        <ele>198.1689453125</ele>
        <time>2016-03-23T19:12:28Z</time>
      </trkpt>
      <trkpt lat="46.88397" lon="-71.65308">
        <ele>198.64953613281</ele>
        <time>2016-03-23T19:12:52Z</time>
      </trkpt>
      <trkpt lat="46.88396" lon="-71.65314">
        <ele>198.1689453125</ele>
        <time>2016-03-23T19:13:04Z</time>
      </trkpt>
      <trkpt lat="46.88391" lon="-71.65309">
        <ele>197.68823242188</ele>
        <time>2016-03-23T19:13:17Z</time>
      </trkpt>
      <trkpt lat="46.88387" lon="-71.65302">
        <ele>197.20751953125</ele>
        <time>2016-03-23T19:13:51Z</time>
      </trkpt>
      <trkpt lat="46.88381" lon="-71.653">
        <ele>197.68823242188</ele>
        <time>2016-03-23T19:14:35Z</time>
      </trkpt>
      <trkpt lat="46.88384" lon="-71.65306">
        <ele>196.72692871094</ele>
        <time>2016-03-23T19:14:56Z</time>
      </trkpt>
      <trkpt lat="46.88388" lon="-71.6531">
        <ele>197.20751953125</ele>
        <time>2016-03-23T19:15:11Z</time>
      </trkpt>
      <trkpt lat="46.88392" lon="-71.65317">
        <ele>197.20751953125</ele>
        <time>2016-03-23T19:15:53Z</time>
      </trkpt>
      <trkpt lat="46.88392" lon="-71.6532">
        <ele>195.28491210938</ele>
        <time>2016-03-23T19:16:18Z</time>
      </trkpt>
      <trkpt lat="46.88397" lon="-71.65318">
        <ele>196.24633789062</ele>
        <time>2016-03-23T19:16:35Z</time>
      </trkpt>
      <trkpt lat="46.88397" lon="-71.65316">
        <ele>195.28491210938</ele>
        <time>2016-03-23T19:16:56Z</time>
      </trkpt>
      <trkpt lat="46.88392" lon="-71.65316">
        <ele>196.72692871094</ele>
        <time>2016-03-23T19:17:11Z</time>
      </trkpt>
      <trkpt lat="46.88385" lon="-71.65314">
        <ele>196.72692871094</ele>
        <time>2016-03-23T19:17:21Z</time>
      </trkpt>
      <trkpt lat="46.88384" lon="-71.6531">
        <ele>198.1689453125</ele>
        <time>2016-03-23T19:17:24Z</time>
      </trkpt>
      <trkpt lat="46.88382" lon="-71.65307">
        <ele>196.72692871094</ele>
        <time>2016-03-23T19:17:27Z</time>
      </trkpt>
      <trkpt lat="46.88377" lon="-71.65296">
        <ele>195.28491210938</ele>
        <time>2016-03-23T19:17:41Z</time>
      </trkpt>
      <trkpt lat="46.88371" lon="-71.65289">
        <ele>195.28491210938</ele>
        <time>2016-03-23T19:17:52Z</time>
      </trkpt>
      <trkpt lat="46.88371" lon="-71.65285">
        <ele>195.765625</ele>
        <time>2016-03-23T19:18:11Z</time>
      </trkpt>
      <trkpt lat="46.88363" lon="-71.65275">
        <ele>193.84301757812</ele>
        <time>2016-03-23T19:18:27Z</time>
      </trkpt>
      <trkpt lat="46.88354" lon="-71.65252">
        <ele>193.84301757812</ele>
        <time>2016-03-23T19:18:45Z</time>
      </trkpt>
      <trkpt lat="46.88354" lon="-71.65251">
        <ele>193.84301757812</ele>
        <time>2016-03-23T19:18:46Z</time>
      </trkpt>
      <trkpt lat="46.88347" lon="-71.65234">
        <ele>190.958984375</ele>
        <time>2016-03-23T19:19:02Z</time>
      </trkpt>
      <trkpt lat="46.8834" lon="-71.65217">
        <ele>190.47839355469</ele>
        <time>2016-03-23T19:19:16Z</time>
      </trkpt>
      <trkpt lat="46.8833" lon="-71.65222">
        <ele>190.47839355469</ele>
        <time>2016-03-23T19:19:30Z</time>
      </trkpt>
      <trkpt lat="46.88328" lon="-71.65221">
        <ele>190.958984375</ele>
        <time>2016-03-23T19:19:32Z</time>
      </trkpt>
      <trkpt lat="46.8832" lon="-71.65209">
        <ele>189.99768066406</ele>
        <time>2016-03-23T19:19:49Z</time>
      </trkpt>
      <trkpt lat="46.8832" lon="-71.65202">
        <ele>189.03637695312</ele>
        <time>2016-03-23T19:20:05Z</time>
      </trkpt>
      <trkpt lat="46.8831" lon="-71.65188">
        <ele>188.55578613281</ele>
        <time>2016-03-23T19:20:20Z</time>
      </trkpt>
      <trkpt lat="46.88295" lon="-71.65172">
        <ele>188.07507324219</ele>
        <time>2016-03-23T19:20:35Z</time>
      </trkpt>
      <trkpt lat="46.88282" lon="-71.65161">
        <ele>188.07507324219</ele>
        <time>2016-03-23T19:20:51Z</time>
      </trkpt>
      <trkpt lat="46.88275" lon="-71.65157">
        <ele>188.07507324219</ele>
        <time>2016-03-23T19:21:04Z</time>
      </trkpt>
      <trkpt lat="46.88269" lon="-71.65148">
        <ele>187.11376953125</ele>
        <time>2016-03-23T19:21:12Z</time>
      </trkpt>
      <trkpt lat="46.88262" lon="-71.65146">
        <ele>188.07507324219</ele>
        <time>2016-03-23T19:21:18Z</time>
      </trkpt>
      <trkpt lat="46.88255" lon="-71.65133">
        <ele>188.55578613281</ele>
        <time>2016-03-23T19:21:32Z</time>
      </trkpt>
      <trkpt lat="46.88249" lon="-71.65126">
        <ele>187.59436035156</ele>
        <time>2016-03-23T19:21:39Z</time>
      </trkpt>
      <trkpt lat="46.88248" lon="-71.65124">
        <ele>188.07507324219</ele>
        <time>2016-03-23T19:21:41Z</time>
      </trkpt>
      <trkpt lat="46.88234" lon="-71.65113">
        <ele>189.51696777344</ele>
        <time>2016-03-23T19:21:55Z</time>
      </trkpt>
      <trkpt lat="46.88216" lon="-71.65109">
        <ele>189.51696777344</ele>
        <time>2016-03-23T19:22:11Z</time>
      </trkpt>
      <trkpt lat="46.88197" lon="-71.65104">
        <ele>188.55578613281</ele>
        <time>2016-03-23T19:22:28Z</time>
      </trkpt>
      <trkpt lat="46.88184" lon="-71.65102">
        <ele>188.55578613281</ele>
        <time>2016-03-23T19:22:45Z</time>
      </trkpt>
      <trkpt lat="46.88166" lon="-71.65088">
        <ele>187.11376953125</ele>
        <time>2016-03-23T19:23:01Z</time>
      </trkpt>
      <trkpt lat="46.88163" lon="-71.65085">
        <ele>188.07507324219</ele>
        <time>2016-03-23T19:23:04Z</time>
      </trkpt>
      <trkpt lat="46.88154" lon="-71.65079">
        <ele>187.59436035156</ele>
        <time>2016-03-23T19:23:11Z</time>
      </trkpt>
      <trkpt lat="46.88135" lon="-71.65066">
        <ele>186.63317871094</ele>
        <time>2016-03-23T19:23:27Z</time>
      </trkpt>
      <trkpt lat="46.88119" lon="-71.65073">
        <ele>187.11376953125</ele>
        <time>2016-03-23T19:23:41Z</time>
      </trkpt>
      <trkpt lat="46.88117" lon="-71.65073">
        <ele>187.11376953125</ele>
        <time>2016-03-23T19:23:43Z</time>
      </trkpt>
      <trkpt lat="46.88101" lon="-71.65083">
        <ele>187.59436035156</ele>
        <time>2016-03-23T19:23:57Z</time>
      </trkpt>
      <trkpt lat="46.88092" lon="-71.65088">
        <ele>188.07507324219</ele>
        <time>2016-03-23T19:24:05Z</time>
      </trkpt>
      <trkpt lat="46.88074" lon="-71.65097">
        <ele>189.51696777344</ele>
        <time>2016-03-23T19:24:22Z</time>
      </trkpt>
      <trkpt lat="46.88058" lon="-71.65104">
        <ele>190.958984375</ele>
        <time>2016-03-23T19:24:37Z</time>
      </trkpt>
      <trkpt lat="46.88041" lon="-71.65106">
        <ele>190.47839355469</ele>
        <time>2016-03-23T19:24:52Z</time>
      </trkpt>
      <trkpt lat="46.88026" lon="-71.65107">
        <ele>190.47839355469</ele>
        <time>2016-03-23T19:25:06Z</time>
      </trkpt>
      <trkpt lat="46.88003" lon="-71.65111">
        <ele>192.40112304688</ele>
        <time>2016-03-23T19:25:26Z</time>
      </trkpt>
      <trkpt lat="46.87988" lon="-71.65109">
        <ele>192.40112304688</ele>
        <time>2016-03-23T19:25:40Z</time>
      </trkpt>
      <trkpt lat="46.87973" lon="-71.65093">
        <ele>190.958984375</ele>
        <time>2016-03-23T19:25:56Z</time>
      </trkpt>
      <trkpt lat="46.87954" lon="-71.65084">
        <ele>189.03637695312</ele>
        <time>2016-03-23T19:26:14Z</time>
      </trkpt>
      <trkpt lat="46.87937" lon="-71.65079">
        <ele>188.55578613281</ele>
        <time>2016-03-23T19:26:29Z</time>
      </trkpt>
      <trkpt lat="46.87924" lon="-71.65078">
        <ele>188.55578613281</ele>
        <time>2016-03-23T19:26:41Z</time>
      </trkpt>
      <trkpt lat="46.87917" lon="-71.65062">
        <ele>187.11376953125</ele>
        <time>2016-03-23T19:26:54Z</time>
      </trkpt>
      <trkpt lat="46.87913" lon="-71.65041">
        <ele>186.15246582031</ele>
        <time>2016-03-23T19:27:07Z</time>
      </trkpt>
      <trkpt lat="46.87911" lon="-71.65025">
        <ele>185.19116210938</ele>
        <time>2016-03-23T19:27:17Z</time>
      </trkpt>
      <trkpt lat="46.879" lon="-71.65011">
        <ele>183.7490234375</ele>
        <time>2016-03-23T19:27:30Z</time>
      </trkpt>
      <trkpt lat="46.8789" lon="-71.65001">
        <ele>182.78784179688</ele>
        <time>2016-03-23T19:27:41Z</time>
      </trkpt>
      <trkpt lat="46.8788" lon="-71.64982">
        <ele>181.34582519531</ele>
        <time>2016-03-23T19:27:56Z</time>
      </trkpt>
      <trkpt lat="46.87872" lon="-71.6496">
        <ele>179.90380859375</ele>
        <time>2016-03-23T19:28:11Z</time>
      </trkpt>
      <trkpt lat="46.87862" lon="-71.64939">
        <ele>180.38452148438</ele>
        <time>2016-03-23T19:28:26Z</time>
      </trkpt>
      <trkpt lat="46.87855" lon="-71.64919">
        <ele>179.90380859375</ele>
        <time>2016-03-23T19:28:39Z</time>
      </trkpt>
      <trkpt lat="46.87852" lon="-71.64897">
        <ele>178.94262695312</ele>
        <time>2016-03-23T19:28:52Z</time>
      </trkpt>
      <trkpt lat="46.87853" lon="-71.64886">
        <ele>177.98120117188</ele>
        <time>2016-03-23T19:28:58Z</time>
      </trkpt>
      <trkpt lat="46.87849" lon="-71.64865">
        <ele>177.50061035156</ele>
        <time>2016-03-23T19:29:11Z</time>
      </trkpt>
      <trkpt lat="46.87837" lon="-71.64852">
        <ele>176.53930664062</ele>
        <time>2016-03-23T19:29:24Z</time>
      </trkpt>
      <trkpt lat="46.87825" lon="-71.64832">
        <ele>174.61657714844</ele>
        <time>2016-03-23T19:29:39Z</time>
      </trkpt>
      <trkpt lat="46.87822" lon="-71.64831">
        <ele>174.13586425781</ele>
        <time>2016-03-23T19:29:43Z</time>
      </trkpt>
      <trkpt lat="46.8781" lon="-71.64827">
        <ele>173.6552734375</ele>
        <time>2016-03-23T19:29:54Z</time>
      </trkpt>
      <trkpt lat="46.87796" lon="-71.64835">
        <ele>171.25207519531</ele>
        <time>2016-03-23T19:30:07Z</time>
      </trkpt>
      <trkpt lat="46.87789" lon="-71.6484">
        <ele>170.77136230469</ele>
        <time>2016-03-23T19:30:26Z</time>
      </trkpt>
      <trkpt lat="46.87775" lon="-71.64847">
        <ele>172.69396972656</ele>
        <time>2016-03-23T19:30:45Z</time>
      </trkpt>
      <trkpt lat="46.87766" lon="-71.64848">
        <ele>173.17468261719</ele>
        <time>2016-03-23T19:31:01Z</time>
      </trkpt>
      <trkpt lat="46.8776" lon="-71.64854">
        <ele>175.09729003906</ele>
        <time>2016-03-23T19:31:08Z</time>
      </trkpt>
      <trkpt lat="46.87746" lon="-71.64872">
        <ele>176.05859375</ele>
        <time>2016-03-23T19:31:22Z</time>
      </trkpt>
      <trkpt lat="46.87745" lon="-71.64873">
        <ele>176.05859375</ele>
        <time>2016-03-23T19:31:23Z</time>
      </trkpt>
      <trkpt lat="46.87743" lon="-71.64877">
        <ele>176.53930664062</ele>
        <time>2016-03-23T19:31:26Z</time>
      </trkpt>
      <trkpt lat="46.8773" lon="-71.64894">
        <ele>178.94262695312</ele>
        <time>2016-03-23T19:31:39Z</time>
      </trkpt>
      <trkpt lat="46.87726" lon="-71.64907">
        <ele>182.30712890625</ele>
        <time>2016-03-23T19:31:49Z</time>
      </trkpt>
      <trkpt lat="46.87722" lon="-71.64924">
        <ele>182.78784179688</ele>
        <time>2016-03-23T19:32:02Z</time>
      </trkpt>
      <trkpt lat="46.87713" lon="-71.64933">
        <ele>185.19116210938</ele>
        <time>2016-03-23T19:32:12Z</time>
      </trkpt>
      <trkpt lat="46.87707" lon="-71.6493">
        <ele>185.67175292969</ele>
        <time>2016-03-23T19:32:18Z</time>
      </trkpt>
      <trkpt lat="46.87697" lon="-71.64924">
        <ele>186.15246582031</ele>
        <time>2016-03-23T19:32:28Z</time>
      </trkpt>
      <trkpt lat="46.87682" lon="-71.64917">
        <ele>186.63317871094</ele>
        <time>2016-03-23T19:32:43Z</time>
      </trkpt>
      <trkpt lat="46.87676" lon="-71.64917">
        <ele>187.59436035156</ele>
        <time>2016-03-23T19:32:48Z</time>
      </trkpt>
      <trkpt lat="46.87659" lon="-71.64908">
        <ele>188.55578613281</ele>
        <time>2016-03-23T19:33:04Z</time>
      </trkpt>
      <trkpt lat="46.87654" lon="-71.64904">
        <ele>188.55578613281</ele>
        <time>2016-03-23T19:33:09Z</time>
      </trkpt>
      <trkpt lat="46.87648" lon="-71.649">
        <ele>189.03637695312</ele>
        <time>2016-03-23T19:33:15Z</time>
      </trkpt>
      <trkpt lat="46.87642" lon="-71.64897">
        <ele>189.03637695312</ele>
        <time>2016-03-23T19:33:21Z</time>
      </trkpt>
      <trkpt lat="46.8763" lon="-71.64885">
        <ele>189.99768066406</ele>
        <time>2016-03-23T19:33:34Z</time>
      </trkpt>
      <trkpt lat="46.87618" lon="-71.64875">
        <ele>189.99768066406</ele>
        <time>2016-03-23T19:33:46Z</time>
      </trkpt>
      <trkpt lat="46.8761" lon="-71.64872">
        <ele>190.47839355469</ele>
        <time>2016-03-23T19:33:53Z</time>
      </trkpt>
      <trkpt lat="46.87595" lon="-71.64859">
        <ele>190.47839355469</ele>
        <time>2016-03-23T19:34:08Z</time>
      </trkpt>
      <trkpt lat="46.87592" lon="-71.6486">
        <ele>190.47839355469</ele>
        <time>2016-03-23T19:34:11Z</time>
      </trkpt>
      <trkpt lat="46.8758" lon="-71.64878">
        <ele>191.43957519531</ele>
        <time>2016-03-23T19:34:25Z</time>
      </trkpt>
      <trkpt lat="46.87574" lon="-71.64884">
        <ele>191.92028808594</ele>
        <time>2016-03-23T19:34:32Z</time>
      </trkpt>
      <trkpt lat="46.87563" lon="-71.64891">
        <ele>193.84301757812</ele>
        <time>2016-03-23T19:34:44Z</time>
      </trkpt>
      <trkpt lat="46.87555" lon="-71.649">
        <ele>194.32373046875</ele>
        <time>2016-03-23T19:34:53Z</time>
      </trkpt>
      <trkpt lat="46.87539" lon="-71.64911">
        <ele>197.20751953125</ele>
        <time>2016-03-23T19:35:10Z</time>
      </trkpt>
      <trkpt lat="46.87525" lon="-71.64908">
        <ele>196.24633789062</ele>
        <time>2016-03-23T19:35:23Z</time>
      </trkpt>
      <trkpt lat="46.87514" lon="-71.64921">
        <ele>199.61083984375</ele>
        <time>2016-03-23T19:35:35Z</time>
      </trkpt>
      <trkpt lat="46.8751" lon="-71.64926">
        <ele>199.61083984375</ele>
        <time>2016-03-23T19:35:40Z</time>
      </trkpt>
      <trkpt lat="46.87502" lon="-71.64926">
        <ele>199.61083984375</ele>
        <time>2016-03-23T19:35:48Z</time>
      </trkpt>
      <trkpt lat="46.87491" lon="-71.64932">
        <ele>200.09167480469</ele>
        <time>2016-03-23T19:35:59Z</time>
      </trkpt>
      <trkpt lat="46.87476" lon="-71.64944">
        <ele>201.05285644531</ele>
        <time>2016-03-23T19:36:15Z</time>
      </trkpt>
      <trkpt lat="46.87471" lon="-71.64943">
        <ele>201.53356933594</ele>
        <time>2016-03-23T19:36:21Z</time>
      </trkpt>
      <trkpt lat="46.87462" lon="-71.64939">
        <ele>201.53356933594</ele>
        <time>2016-03-23T19:36:29Z</time>
      </trkpt>
      <trkpt lat="46.87444" lon="-71.64921">
        <ele>200.572265625</ele>
        <time>2016-03-23T19:36:49Z</time>
      </trkpt>
      <trkpt lat="46.87437" lon="-71.64914">
        <ele>200.09167480469</ele>
        <time>2016-03-23T19:37:08Z</time>
      </trkpt>
      <trkpt lat="46.87435" lon="-71.64903">
        <ele>199.13012695312</ele>
        <time>2016-03-23T19:37:17Z</time>
      </trkpt>
      <trkpt lat="46.8743" lon="-71.64893">
        <ele>199.13012695312</ele>
        <time>2016-03-23T19:37:30Z</time>
      </trkpt>
      <trkpt lat="46.87415" lon="-71.64878">
        <ele>200.572265625</ele>
        <time>2016-03-23T19:37:47Z</time>
      </trkpt>
      <trkpt lat="46.87406" lon="-71.64872">
        <ele>200.09167480469</ele>
        <time>2016-03-23T19:38:00Z</time>
      </trkpt>
      <trkpt lat="46.87399" lon="-71.64871">
        <ele>199.13012695312</ele>
        <time>2016-03-23T19:38:20Z</time>
      </trkpt>
      <trkpt lat="46.8739" lon="-71.64879">
        <ele>199.13012695312</ele>
        <time>2016-03-23T19:38:34Z</time>
      </trkpt>
      <trkpt lat="46.87387" lon="-71.6488">
        <ele>198.1689453125</ele>
        <time>2016-03-23T19:38:37Z</time>
      </trkpt>
      <trkpt lat="46.87369" lon="-71.64878">
        <ele>199.13012695312</ele>
        <time>2016-03-23T19:38:53Z</time>
      </trkpt>
      <trkpt lat="46.87356" lon="-71.64882">
        <ele>200.572265625</ele>
        <time>2016-03-23T19:39:04Z</time>
      </trkpt>
      <trkpt lat="46.8734" lon="-71.64907">
        <ele>202.01428222656</ele>
        <time>2016-03-23T19:39:23Z</time>
      </trkpt>
      <trkpt lat="46.87324" lon="-71.64937">
        <ele>200.09167480469</ele>
        <time>2016-03-23T19:39:45Z</time>
      </trkpt>
      <trkpt lat="46.87307" lon="-71.64938">
        <ele>200.572265625</ele>
        <time>2016-03-23T19:40:00Z</time>
      </trkpt>
      <trkpt lat="46.87295" lon="-71.64942">
        <ele>201.53356933594</ele>
        <time>2016-03-23T19:40:14Z</time>
      </trkpt>
      <trkpt lat="46.87288" lon="-71.6494">
        <ele>202.01428222656</ele>
        <time>2016-03-23T19:40:20Z</time>
      </trkpt>
      <trkpt lat="46.87282" lon="-71.64935">
        <ele>202.49487304688</ele>
        <time>2016-03-23T19:40:34Z</time>
      </trkpt>
      <trkpt lat="46.87276" lon="-71.64927">
        <ele>202.97546386719</ele>
        <time>2016-03-23T19:40:49Z</time>
      </trkpt>
      <trkpt lat="46.87273" lon="-71.64924">
        <ele>202.97546386719</ele>
        <time>2016-03-23T19:40:52Z</time>
      </trkpt>
      <trkpt lat="46.87256" lon="-71.64912">
        <ele>204.41748046875</ele>
        <time>2016-03-23T19:41:09Z</time>
      </trkpt>
      <trkpt lat="46.87243" lon="-71.64899">
        <ele>207.30139160156</ele>
        <time>2016-03-23T19:41:23Z</time>
      </trkpt>
      <trkpt lat="46.87227" lon="-71.64891">
        <ele>208.74340820312</ele>
        <time>2016-03-23T19:41:38Z</time>
      </trkpt>
      <trkpt lat="46.87207" lon="-71.64879">
        <ele>208.74340820312</ele>
        <time>2016-03-23T19:41:55Z</time>
      </trkpt>
      <trkpt lat="46.872" lon="-71.64874">
        <ele>209.22412109375</ele>
        <time>2016-03-23T19:42:01Z</time>
      </trkpt>
      <trkpt lat="46.8719" lon="-71.64871">
        <ele>209.22412109375</ele>
        <time>2016-03-23T19:42:09Z</time>
      </trkpt>
      <trkpt lat="46.87186" lon="-71.64868">
        <ele>208.74340820312</ele>
        <time>2016-03-23T19:42:13Z</time>
      </trkpt>
      <trkpt lat="46.87172" lon="-71.64856">
        <ele>209.70483398438</ele>
        <time>2016-03-23T19:42:26Z</time>
      </trkpt>
      <trkpt lat="46.87163" lon="-71.64843">
        <ele>209.70483398438</ele>
        <time>2016-03-23T19:42:37Z</time>
      </trkpt>
      <trkpt lat="46.87148" lon="-71.64829">
        <ele>208.74340820312</ele>
        <time>2016-03-23T19:42:51Z</time>
      </trkpt>
      <trkpt lat="46.87129" lon="-71.64812">
        <ele>208.26281738281</ele>
        <time>2016-03-23T19:43:08Z</time>
      </trkpt>
      <trkpt lat="46.87115" lon="-71.64796">
        <ele>209.22412109375</ele>
        <time>2016-03-23T19:43:24Z</time>
      </trkpt>
      <trkpt lat="46.87108" lon="-71.64773">
        <ele>209.70483398438</ele>
        <time>2016-03-23T19:43:39Z</time>
      </trkpt>
      <trkpt lat="46.87108" lon="-71.64771">
        <ele>210.18542480469</ele>
        <time>2016-03-23T19:43:40Z</time>
      </trkpt>
      <trkpt lat="46.87106" lon="-71.64759">
        <ele>210.18542480469</ele>
        <time>2016-03-23T19:43:56Z</time>
      </trkpt>
      <trkpt lat="46.871" lon="-71.64741">
        <ele>208.74340820312</ele>
        <time>2016-03-23T19:44:10Z</time>
      </trkpt>
      <trkpt lat="46.87087" lon="-71.64721">
        <ele>206.82067871094</ele>
        <time>2016-03-23T19:44:27Z</time>
      </trkpt>
      <trkpt lat="46.87081" lon="-71.64716">
        <ele>206.34008789062</ele>
        <time>2016-03-23T19:44:33Z</time>
      </trkpt>
      <trkpt lat="46.87064" lon="-71.64698">
        <ele>203.93688964844</ele>
        <time>2016-03-23T19:44:50Z</time>
      </trkpt>
      <trkpt lat="46.87055" lon="-71.64686">
        <ele>202.01428222656</ele>
        <time>2016-03-23T19:45:00Z</time>
      </trkpt>
      <trkpt lat="46.87054" lon="-71.64655">
        <ele>202.01428222656</ele>
        <time>2016-03-23T19:45:18Z</time>
      </trkpt>
      <trkpt lat="46.87053" lon="-71.64635">
        <ele>202.01428222656</ele>
        <time>2016-03-23T19:45:30Z</time>
      </trkpt>
      <trkpt lat="46.8705" lon="-71.64605">
        <ele>201.53356933594</ele>
        <time>2016-03-23T19:45:47Z</time>
      </trkpt>
      <trkpt lat="46.87046" lon="-71.64579">
        <ele>201.53356933594</ele>
        <time>2016-03-23T19:46:02Z</time>
      </trkpt>
      <trkpt lat="46.87037" lon="-71.64552">
        <ele>200.09167480469</ele>
        <time>2016-03-23T19:46:18Z</time>
      </trkpt>
      <trkpt lat="46.87034" lon="-71.64524">
        <ele>200.572265625</ele>
        <time>2016-03-23T19:46:34Z</time>
      </trkpt>
      <trkpt lat="46.87033" lon="-71.64516">
        <ele>200.09167480469</ele>
        <time>2016-03-23T19:46:38Z</time>
      </trkpt>
      <trkpt lat="46.8703" lon="-71.64484">
        <ele>200.09167480469</ele>
        <time>2016-03-23T19:46:56Z</time>
      </trkpt>
      <trkpt lat="46.87024" lon="-71.64459">
        <ele>199.61083984375</ele>
        <time>2016-03-23T19:47:10Z</time>
      </trkpt>
      <trkpt lat="46.87024" lon="-71.64454">
        <ele>199.13012695312</ele>
        <time>2016-03-23T19:47:13Z</time>
      </trkpt>
      <trkpt lat="46.87021" lon="-71.64444">
        <ele>198.64953613281</ele>
        <time>2016-03-23T19:47:19Z</time>
      </trkpt>
      <trkpt lat="46.8702" lon="-71.64437">
        <ele>198.1689453125</ele>
        <time>2016-03-23T19:47:23Z</time>
      </trkpt>
      <trkpt lat="46.87019" lon="-71.64429">
        <ele>199.13012695312</ele>
        <time>2016-03-23T19:47:27Z</time>
      </trkpt>
      <trkpt lat="46.87015" lon="-71.64398">
        <ele>199.13012695312</ele>
        <time>2016-03-23T19:47:45Z</time>
      </trkpt>
      <trkpt lat="46.87016" lon="-71.64396">
        <ele>199.13012695312</ele>
        <time>2016-03-23T19:47:46Z</time>
      </trkpt>
      <trkpt lat="46.87015" lon="-71.64386">
        <ele>199.13012695312</ele>
        <time>2016-03-23T19:47:52Z</time>
      </trkpt>
      <trkpt lat="46.8701" lon="-71.64363">
        <ele>197.68823242188</ele>
        <time>2016-03-23T19:48:06Z</time>
      </trkpt>
      <trkpt lat="46.87001" lon="-71.64356">
        <ele>196.72692871094</ele>
        <time>2016-03-23T19:48:17Z</time>
      </trkpt>
      <trkpt lat="46.86998" lon="-71.64355">
        <ele>195.28491210938</ele>
        <time>2016-03-23T19:48:19Z</time>
      </trkpt>
      <trkpt lat="46.86995" lon="-71.64354">
        <ele>194.80432128906</ele>
        <time>2016-03-23T19:48:22Z</time>
      </trkpt>
      <trkpt lat="46.86973" lon="-71.64347">
        <ele>192.88171386719</ele>
        <time>2016-03-23T19:48:40Z</time>
      </trkpt>
      <trkpt lat="46.86969" lon="-71.64343">
        <ele>190.958984375</ele>
        <time>2016-03-23T19:48:44Z</time>
      </trkpt>
      <trkpt lat="46.86962" lon="-71.64336">
        <ele>190.47839355469</ele>
        <time>2016-03-23T19:48:50Z</time>
      </trkpt>
      <trkpt lat="46.8696" lon="-71.64302">
        <ele>188.07507324219</ele>
        <time>2016-03-23T19:49:10Z</time>
      </trkpt>
      <trkpt lat="46.86961" lon="-71.64295">
        <ele>189.03637695312</ele>
        <time>2016-03-23T19:49:27Z</time>
      </trkpt>
    </trkseg>
  </trk>
</gpx>